Paulistana II — 00 — position and weather

sailwx.info

Track history (hours):
 
Tides and Currents Weather Stations Pressure Air Temp Water Temp Dewpoint Dewpoint Depression Visibility Wind Speed Wind Dir Waves Ship Positions

Paulistana II

Last reported at 2014-Nov-01 07:33 UTC. Time now 2014-Nov-01 08:24 UTC.
Position N 31°21' E 121°27'.

Length 6 m.

Type: Pollution control. MMSI: 316014038.

Date/timePositionNaut miles runAvg speedWind from/ knotsBaromVisibWave heightAir tempDewpointWater temp
2014-Nov-01 07:33N 31°21' E 121°27'655336920.4
2014-Nov-01 07:33N 23°05' E 113°26'64715225.5
2014-Nov-01 07:31N 31°58' E 120°20'5433465724.4
2014-Nov-01 07:30N 48°32' W 123°01'5408846530.2
2014-Nov-01 07:30N 31°39' E 121°14'52031222.8
2014-Nov-01 07:29N 40°18' E 122°05'5032298.8
2014-Nov-01 07:16N 32°01' E 120°32'0 0.0
2014-Nov-01 06:33N 32°01' E 120°32'655157262.4
2014-Nov-01 06:33N 23°05' E 113°26'64716639.4
2014-Nov-01 06:31N 31°58' E 120°20'541060.5
2014-Nov-01 06:28N 31°36' E 121°18'540890135.6
2014-Nov-01 06:24N 48°32' W 123°01'4949212085.5
2014-Nov-01 06:23N 40°18' E 122°05'53616492.3
2014-Nov-01 06:21N 31°22' E 121°30'6379.3
2014-Nov-01 05:33N 32°01' E 120°32'655214477.0
2014-Nov-01 05:33N 23°05' E 113°26'66018423.8
2014-Nov-01 05:31N 31°33' E 121°20'5717042.3
2014-Nov-01 05:31N 31°58' E 120°20'5433543345.1
2014-Nov-01 05:30N 48°32' W 123°01'4949212085.5
2014-Nov-01 05:29N 40°18' E 122°05'502543.0
2014-Nov-01 04:33N 32°01' E 120°32'655294905.9
2014-Nov-01 04:33N 23°05' E 113°26'66027018.5
2014-Nov-01 04:32N 31°31' E 121°24'603754.1
2014-Nov-01 04:31N 31°58' E 120°20'5433630981.4
2014-Nov-01 04:30N 48°32' W 123°01'4949214640.8
2014-Nov-01 04:29N 40°18' E 122°05'11231220.9
2014-Nov-01 03:34N 23°05' E 113°26'65533228.6
2014-Nov-01 03:32N 32°01' E 120°32'5713710.3
2014-Nov-01 03:32N 31°29' E 121°27'642617.7
2014-Nov-01 03:31N 31°58' E 120°20'5433698586.6
2014-Nov-01 03:30N 48°32' W 123°01'494939414.1
2014-Nov-01 03:23N 40°18' E 122°05'502605.5
2014-Nov-01 02:33N 32°01' E 120°32'655294923.3
2014-Nov-01 02:33N 23°05' E 113°26'6601187228.8
2014-Nov-01 02:33N 31°26' E 121°29'671912.1
2014-Nov-01 02:31N 31°58' E 120°20'5433782419.1
2014-Nov-01 02:30N 48°32' W 123°01'4949183661.7
2014-Nov-01 02:29N 40°18' E 122°05'533575.6
2014-Nov-01 01:33N 31°26' E 121°29'60216988.7
2014-Nov-01 01:33N 32°01' E 120°31'655157282.8
2014-Nov-01 01:33N 23°05' E 113°26'6491168581.5
2014-Nov-01 01:33N 31°60' E 120°22'260.5
2014-Nov-01 01:31N 31°58' E 120°20'5433724462.2
2014-Nov-01 01:30N 48°32' W 123°01'4949187528.2
2014-Nov-01 01:29N 40°18' E 122°05'502547.6
2014-Nov-01 00:33N 32°01' E 120°31'655393209.8
2014-Nov-01 00:33N 23°05' E 113°26'65987897.3
2014-Nov-01 00:33N 31°26' E 121°29'622999.5
2014-Nov-01 00:32N 32°02' E 120°29'9489.0
2014-Nov-01 00:31N 31°58' E 120°20'5433815024.4
2014-Nov-01 00:30N 48°32' W 123°01'4949183661.7
2014-Nov-01 00:29N 40°18' E 122°05'507552.5
2014-Oct-31 23:33N 31°58' E 120°20'64786278.6
2014-Oct-31 23:33N 23°05' E 113°26'659169516.2
2014-Oct-31 23:33N 31°26' E 121°29'583456.6
2014-Oct-31 23:32N 32°01' E 120°35'5419199081.1
2014-Oct-31 23:30N 48°32' W 123°01'4949172962.8
2014-Oct-31 23:28N 40°18' E 122°05'507553.0
2014-Oct-31 22:33N 31°58' E 120°20'64793180.9
2014-Oct-31 22:33N 23°05' E 113°26'65998884.4
2014-Oct-31 22:33N 31°26' E 121°29'5409130678.3
2014-Oct-31 22:30N 48°32' W 123°01'4949176388.0
2014-Oct-31 22:28N 40°18' E 122°05'5023721.7
2014-Oct-31 22:20N 32°01' E 120°32'655836.9
2014-Oct-31 21:33N 23°05' E 113°26'65944777.6
2014-Oct-31 21:32N 31°26' E 121°29'5409140079.7
2014-Oct-31 21:30N 48°32' W 123°01'4949163442.1
2014-Oct-31 21:28N 40°18' E 122°05'11231225.7
2014-Oct-31 20:33N 23°05' E 113°26'9451919547.7
2014-Oct-31 20:33N 41°23' W 071°31'93391344793.9
2014-Oct-31 20:32N 31°26' E 121°29'5338060.9
2014-Oct-31 20:28N 40°18' E 122°05'494970695.2
2014-Oct-31 20:24N 48°32' W 123°01'62027325.7
2014-Oct-31 19:33N 23°05' E 113°26'65560494.0
2014-Oct-31 19:33N 32°01' E 120°32'92521448062.5
2014-Oct-31 19:32N 41°18' W 071°20'223961997.6
2014-Oct-31 19:30N 48°32' W 123°01'4949164955.3
2014-Oct-31 19:28N 40°18' E 122°05'5335593.3
2014-Oct-31 19:23N 31°26' E 121°29'6073.2
2014-Oct-31 18:33N 32°01' E 120°32'603010.6
2014-Oct-31 18:32N 31°26' E 121°29'659593302.5
2014-Oct-31 18:32N 23°05' E 113°26'6202202988.3
2014-Oct-31 18:30N 48°32' W 123°01'4949154914.5
2014-Oct-31 18:28N 40°18' E 122°05'11231227.2
2014-Oct-31 17:33N 23°05' E 113°26'65598302.0
2014-Oct-31 17:33N 32°01' E 120°32'603496.2
2014-Oct-31 17:32N 31°26' E 121°29'5409187221.8
2014-Oct-31 17:30N 48°32' W 123°01'4949154914.6
2014-Oct-31 17:28N 40°18' E 122°05'502548.9
2014-Oct-31 16:33N 32°01' E 120°32'602382.2
2014-Oct-31 16:32N 31°26' E 121°29'5409196677.6
2014-Oct-31 16:30N 48°32' W 123°01'4949156273.5
2014-Oct-31 16:28N 40°18' E 122°05'11231204.9
2014-Oct-31 15:32N 23°05' E 113°26'65965923.0
2014-Oct-31 15:32N 31°26' E 121°29'5338964.9
2014-Oct-31 15:28N 40°18' E 122°05'494929692.0
2014-Oct-31 15:18N 48°32' W 123°01'54227272.9
2014-Oct-31 14:33N 32°01' E 120°32'65587380.2
2014-Oct-31 14:33N 23°05' E 113°26'65928593.1
2014-Oct-31 14:32N 31°26' E 121°29'5409226407.6
2014-Oct-31 14:30N 48°32' W 123°01'4949149707.3
2014-Oct-31 14:28N 40°18' E 122°05'8791146523.8
2014-Oct-31 14:25N 41°09' W 071°15'925510849.7
2014-Oct-31 13:33N 32°01' E 120°32'655589833.4
2014-Oct-31 13:33N 23°05' E 113°26'65922602.0
2014-Oct-31 13:32N 31°26' E 121°29'5409234591.0
2014-Oct-31 13:30N 48°32' W 123°01'4949140276.9
2014-Oct-31 13:28N 40°18' E 122°05'502550.1
2014-Oct-31 12:33N 32°01' E 120°31'65562085.3
2014-Oct-31 12:33N 23°05' E 113°26'65932509.7
2014-Oct-31 12:31N 31°26' E 121°29'5339640.6
2014-Oct-31 12:28N 40°18' E 122°05'494929941.5
2014-Oct-31 12:18N 48°32' W 123°01'22362983.0
2014-Oct-31 11:33N 41°18' W 071°23'92541959620.2
2014-Oct-31 11:33N 32°01' E 120°31'655786419.4
2014-Oct-31 11:33N 23°05' E 113°26'65926079.4
2014-Oct-31 11:31N 31°26' E 121°29'5339838.3
2014-Oct-31 11:28N 40°18' E 122°05'494976460.0
2014-Oct-31 11:24N 48°32' W 123°01'62027240.2
2014-Oct-31 10:33N 23°05' E 113°26'655117962.9
2014-Oct-31 10:33N 32°01' E 120°31'603099.8
2014-Oct-31 10:31N 31°26' E 121°29'5409290612.6
2014-Oct-31 10:30N 48°32' W 123°01'4949134963.5
2014-Oct-31 10:28N 40°18' E 122°05'11231221.3
2014-Oct-31 09:33N 23°05' E 113°26'65924466.2
2014-Oct-31 09:31N 31°26' E 121°29'5409324517.4
2014-Oct-31 09:30N 48°32' W 123°01'494936283.5
2014-Oct-31 09:22N 40°18' E 122°05'533657.9
2014-Oct-31 08:33N 31°26' E 121°29'65965922.9
2014-Oct-31 08:33N 23°05' E 113°26'6202144056.2
2014-Oct-31 08:30N 48°32' W 123°01'4949138102.2
2014-Oct-31 08:28N 40°18' E 122°05'5021274.6
2014-Oct-31 08:04N 32°01' E 120°32'0 0.0
2014-Oct-31 07:33N 32°01' E 120°32'655157283.1
2014-Oct-31 07:33N 23°05' E 113°26'112313478.8
2014-Oct-31 07:28N 40°18' E 122°05'494982477.7
2014-Oct-31 07:24N 48°32' W 123°01'540928466.5
2014-Oct-31 07:13N 31°26' E 121°29'659996.7
2014-Oct-31 06:33N 23°05' E 113°26'655786415.7
2014-Oct-31 06:33N 32°01' E 120°32'6036127.4
2014-Oct-31 06:33N 31°26' E 121°29'5409113865.9
2014-Oct-31 06:30N 48°32' W 123°01'4949129095.5
2014-Oct-31 06:28N 40°18' E 122°05'533582.1
2014-Oct-31 05:33N 31°26' E 121°29'659395535.0
2014-Oct-31 05:33N 23°05' E 113°26'655131069.3
2014-Oct-31 05:33N 32°01' E 120°32'542238962.8
2014-Oct-31 05:24N 48°32' W 123°01'4949123716.6
2014-Oct-31 05:22N 40°18' E 122°05'502613.3
2014-Oct-31 04:33N 32°01' E 120°32'655196603.9
2014-Oct-31 04:33N 23°05' E 113°26'6202166632.2
2014-Oct-31 04:30N 48°32' W 123°01'540956601.9
2014-Oct-31 04:25N 31°26' E 121°29'5333689.4
2014-Oct-31 04:16N 40°18' E 122°05'502703.8
2014-Oct-31 03:33N 32°01' E 120°32'655181480.6
2014-Oct-31 03:33N 23°05' E 113°26'659197767.5
2014-Oct-31 03:33N 31°26' E 121°29'5409138092.6
2014-Oct-31 03:30N 48°32' W 123°01'4949123716.6
2014-Oct-31 03:28N 40°18' E 122°05'502552.3
2014-Oct-31 02:33N 32°01' E 120°32'65547185.3
2014-Oct-31 02:33N 23°05' E 113°26'6202170448.4
2014-Oct-31 02:30N 48°32' W 123°01'4949118767.9
2014-Oct-31 02:28N 40°18' E 122°05'502552.8
2014-Oct-31 01:33N 32°01' E 120°32'655337037.9
2014-Oct-31 01:33N 23°05' E 113°26'6202132909.1
2014-Oct-31 01:30N 48°32' W 123°01'494934727.5
2014-Oct-31 01:22N 40°18' E 122°05'502622.4
2014-Oct-31 00:33N 32°01' E 120°31'65532767.7
2014-Oct-31 00:32N 23°05' E 113°26'6202202988.4
2014-Oct-31 00:30N 48°32' W 123°01'4949113472.4
2014-Oct-31 00:28N 40°18' E 122°05'11231243.1
2014-Oct-30 23:34N 23°05' E 113°26'62022232872.9
2014-Oct-30 23:33N 48°32' W 123°01'5422929543.0
2014-Oct-30 23:33N 32°01' E 120°31'5025723.4
2014-Oct-30 23:28N 40°18' E 122°05'502555.6
2014-Oct-30 22:33N 32°01' E 120°31'655124171.5
2014-Oct-30 22:33N 23°05' E 113°26'6202132122.7
2014-Oct-30 22:30N 48°32' W 123°01'5409973552.7
2014-Oct-30 22:30N 31°26' E 121°29'53314106.5
2014-Oct-30 22:28N 40°18' E 122°05'4971950.5
2014-Oct-30 22:12N 32°04' E 120°45'5479.8
2014-Oct-30 21:32N 31°26' E 121°29'659296651.4
2014-Oct-30 21:32N 23°05' E 113°26'655471849.6
2014-Oct-30 21:32N 32°01' E 120°32'5422216893.1
2014-Oct-30 21:30N 48°32' W 123°01'4949109970.3
2014-Oct-30 21:28N 40°18' E 122°05'497179054.1
2014-Oct-30 21:28N 32°04' E 120°45'1213.4
2014-Oct-30 20:33N 32°01' E 120°32'603737.1
2014-Oct-30 20:32N 31°26' E 121°29'659593306.7
2014-Oct-30 20:32N 23°05' E 113°26'6202237539.7
2014-Oct-30 20:30N 48°32' W 123°01'4949109295.5
2014-Oct-30 20:28N 40°18' E 122°05'502556.5
2014-Oct-30 19:34N 32°01' E 120°32'655214477.1
2014-Oct-30 19:33N 23°05' E 113°26'65926968.5
2014-Oct-30 19:32N 31°26' E 121°29'5409221262.0
2014-Oct-30 19:30N 48°32' W 123°01'4949109970.2
2014-Oct-30 19:28N 40°18' E 122°05'11231236.6
2014-Oct-30 18:33N 23°05' E 113°26'65598302.7
2014-Oct-30 18:33N 32°01' E 120°32'603496.2
2014-Oct-30 18:32N 31°26' E 121°29'540944052.2
2014-Oct-30 18:24N 48°32' W 123°01'4949106042.7
2014-Oct-30 18:22N 40°18' E 122°05'502627.2
2014-Oct-30 17:34N 32°01' E 120°32'65532767.3
2014-Oct-30 17:32N 23°05' E 113°26'65955191.3
2014-Oct-30 17:32N 31°26' E 121°29'5337993.7
2014-Oct-30 17:28N 40°18' E 122°05'494992787.4
2014-Oct-30 17:24N 48°32' W 123°01'22322606.2
2014-Oct-30 16:33N 41°20' W 071°28'94501479150.9
2014-Oct-30 16:33N 23°05' E 113°26'65932070.6
2014-Oct-30 16:31N 31°26' E 121°29'5409330018.0
2014-Oct-30 16:30N 48°32' W 123°01'4949101801.0
2014-Oct-30 16:28N 40°18' E 122°05'502558.6
2014-Oct-30 15:34N 32°01' E 120°32'5021808700.9
2014-Oct-30 15:34N 40°18' E 122°05'1123336970.5
2014-Oct-30 15:33N 23°05' E 113°26'65920112.1
2014-Oct-30 15:31N 31°26' E 121°29'5409347697.6
2014-Oct-30 15:30N 48°32' W 123°01'62026532.7
2014-Oct-30 14:33N 23°05' E 113°26'65587380.2
2014-Oct-30 14:33N 32°01' E 120°32'5422125937.8
2014-Oct-30 14:30N 48°32' W 123°01'5409252871.0
2014-Oct-30 14:29N 31°26' E 121°29'53320194.5
2014-Oct-30 14:28N 40°18' E 122°05'0 0.0
2014-Oct-30 13:33N 40°18' E 122°05'494917815170.8
2014-Oct-30 13:33N 48°32' W 123°01'6202475078.9
2014-Oct-30 13:33N 23°05' E 113°26'65926968.3
2014-Oct-30 13:31N 31°26' E 121°29'60373.1
2014-Oct-30 13:21N 32°01' E 120°32'655818.9
2014-Oct-30 12:33N 23°05' E 113°26'11232021812.9
2014-Oct-30 12:33N 40°18' E 122°05'50278633.8
2014-Oct-30 12:33N 32°01' E 120°31'601793.4
2014-Oct-30 12:31N 31°26' E 121°29'659687.3
2014-Oct-30 11:33N 23°05' E 113°26'6552359258.3
2014-Oct-30 11:33N 32°01' E 120°31'5422107847.4
2014-Oct-30 11:30N 48°32' W 123°01'5409226407.4
2014-Oct-30 11:29N 31°26' E 121°29'5334188.8
2014-Oct-30 11:21N 40°18' E 122°05'502628.4
2014-Oct-30 10:33N 32°01' E 120°31'502452144.4
2014-Oct-30 10:33N 40°18' E 122°05'112356952.5
2014-Oct-30 10:32N 23°05' E 113°26'6202216783.7
2014-Oct-30 10:30N 48°32' W 123°01'5409234590.9
2014-Oct-30 10:29N 31°26' E 121°29'659711.4
2014-Oct-30 09:33N 23°05' E 113°26'1123673937.6
2014-Oct-30 09:33N 40°18' E 122°05'502106386.9
2014-Oct-30 09:33N 32°01' E 120°31'601517.5
2014-Oct-30 09:31N 31°26' E 121°29'54091298070.3
2014-Oct-30 09:30N 48°32' W 123°01'62026481.5
2014-Oct-30 08:33N 23°05' E 113°26'65916480.6
2014-Oct-30 08:31N 31°26' E 121°29'54091947105.4
2014-Oct-30 08:30N 48°32' W 123°01'494993273.1
2014-Oct-30 08:27N 40°18' E 122°05'11231250.0
2014-Oct-30 07:33N 23°05' E 113°26'65913960.1
2014-Oct-30 07:31N 31°26' E 121°29'54096490354.5
2014-Oct-30 07:30N 48°32' W 123°01'494992787.4
2014-Oct-30 07:27N 40°18' E 122°05'0 0.0
2014-Oct-30 06:33N 40°18' E 122°05'112372207.6
2014-Oct-30 06:32N 23°05' E 113°26'65910229.4
2014-Oct-30 06:29N 31°26' E 121°29'540981129.4
2014-Oct-30 06:25N 48°32' W 123°01'62027280.3
2014-Oct-30 05:33N 23°05' E 113°26'1123673937.6
2014-Oct-30 05:33N 40°18' E 122°05'4949107320.4
2014-Oct-30 05:31N 48°32' W 123°01'54091390790.2
2014-Oct-30 05:30N 31°26' E 121°29'659691.1
2014-Oct-30 04:33N 23°05' E 113°26'6202145939.3
2014-Oct-30 04:31N 48°32' W 123°01'5409885047.9
2014-Oct-30 04:30N 31°26' E 121°29'3737.0
2014-Oct-30 04:30N 31°22' E 121°29'6311268.6
2014-Oct-30 04:30N 32°01' E 120°32'5023631.9
2014-Oct-30 04:21N 40°18' E 122°05'11231408.4
2014-Oct-30 03:33N 23°05' E 113°26'655589811.8
2014-Oct-30 03:33N 32°01' E 120°32'502361740.2
2014-Oct-30 03:33N 40°18' E 122°05'5332867.7
2014-Oct-30 03:22N 31°26' E 121°29'540990986.3
2014-Oct-30 03:19N 48°32' W 123°01'62028251.6
2014-Oct-30 02:33N 23°05' E 113°26'1123252727.9
2014-Oct-30 02:33N 40°18' E 122°05'502258385.8
2014-Oct-30 02:33N 32°01' E 120°32'5422130135.7
2014-Oct-30 02:31N 48°32' W 123°01'5409486776.6
2014-Oct-30 02:30N 31°26' E 121°29'533563.8
2014-Oct-30 01:33N 40°18' E 122°05'1123808725.2
2014-Oct-30 01:33N 23°05' E 113°26'65556172.6
2014-Oct-30 01:32N 32°01' E 120°32'5422179085.9
2014-Oct-30 01:31N 48°32' W 123°01'5409432690.7
2014-Oct-30 01:30N 31°26' E 121°29'6064.2
2014-Oct-30 00:33N 32°01' E 120°32'50269565.4
2014-Oct-30 00:33N 40°18' E 122°05'11232021823.0
2014-Oct-30 00:33N 23°05' E 113°26'6202150869.8
2014-Oct-30 00:31N 48°32' W 123°01'5409116593.3
2014-Oct-30 00:28N 31°26' E 121°29'533584.4
2014-Oct-29 23:33N 40°18' E 122°05'502113036.1
2014-Oct-29 23:33N 32°01' E 120°31'65528086.6
2014-Oct-29 23:31N 23°05' E 113°26'6202446574.7
2014-Oct-29 23:31N 48°32' W 123°01'5409278158.3
2014-Oct-29 23:29N 31°26' E 121°29'0 0.0
2014-Oct-29 22:34N 31°26' E 121°29'659339030.1
2014-Oct-29 22:33N 23°05' E 113°26'1123212823.5
2014-Oct-29 22:33N 40°18' E 122°05'50229171.0
2014-Oct-29 22:32N 32°01' E 120°31'5422219330.5
2014-Oct-29 22:31N 48°32' W 123°01'54095685.0
2014-Oct-29 21:33N 31°26' E 121°29'6054250.3
2014-Oct-29 21:33N 32°01' E 120°31'655107239.0
2014-Oct-29 21:33N 23°05' E 113°26'6202151896.2
2014-Oct-29 21:31N 48°32' W 123°01'494982097.6
2014-Oct-29 21:27N 40°18' E 122°05'51411205.2
2014-Oct-29 21:24N 31°46' E 121°06'2833.3
2014-Oct-29 20:33N 31°26' E 121°29'6030964.5
2014-Oct-29 20:33N 32°01' E 120°32'3812448.7
2014-Oct-29 20:33N 31°42' E 121°10'6611189365.6
2014-Oct-29 20:33N 23°05' E 113°26'620267868.5
2014-Oct-29 20:28N 48°32' W 123°01'4949509004.9
2014-Oct-29 20:27N 40°18' E 122°05'11231257.0
2014-Oct-29 19:33N 23°05' E 113°26'655235926.5
2014-Oct-29 19:33N 32°01' E 120°32'502139130.8
2014-Oct-29 19:33N 40°18' E 122°05'4949123716.5
2014-Oct-29 19:31N 48°32' W 123°01'5409209366.4
2014-Oct-29 19:29N 31°26' E 121°29'6065.1
2014-Oct-29 18:34N 32°01' E 120°32'655262140.6
2014-Oct-29 18:33N 23°05' E 113°26'659593306.7
2014-Oct-29 18:33N 31°26' E 121°29'53383413.2
2014-Oct-29 18:33N 40°18' E 122°05'8790263692.3
2014-Oct-29 18:31N 41°22' W 071°31'934272173.4
2014-Oct-29 18:23N 31°21' E 121°25'1188.2
2014-Oct-29 18:16N 31°31' E 121°23'5408106970.9
2014-Oct-29 18:13N 48°32' W 123°01'54228313.6
2014-Oct-29 17:33N 32°01' E 120°32'6011408.0
2014-Oct-29 17:33N 31°26' E 121°29'659395537.8
2014-Oct-29 17:33N 23°05' E 113°26'1123449294.0
2014-Oct-29 17:33N 40°18' E 122°05'53054487.8
2014-Oct-29 17:32N 31°29' E 121°27'5407188989.8
2014-Oct-29 17:31N 48°32' W 123°01'5412324741.1
2014-Oct-29 17:30N 31°22' E 121°28'4 4.2
2014-Oct-29 16:33N 31°26' E 121°29'1654.5
2014-Oct-29 16:33N 31°26' E 121°30'660475476.3
2014-Oct-29 16:33N 23°05' E 113°26'65587380.2
2014-Oct-29 16:32N 32°01' E 120°32'5025319.7
2014-Oct-29 16:27N 40°18' E 122°05'5363495.6
2014-Oct-29 16:18N 31°22' E 121°30'541029601.2
2014-Oct-29 16:07N 48°32' W 123°01'54229804.3
2014-Oct-29 15:33N 32°01' E 120°32'6337732.7
2014-Oct-29 15:33N 31°22' E 121°30'658295945.7
2014-Oct-29 15:33N 23°05' E 113°26'659237322.7
2014-Oct-29 15:33N 31°26' E 121°29'533137034.4
2014-Oct-29 15:33N 40°18' E 122°05'494936283.5
2014-Oct-29 15:25N 48°32' W 123°01'62027244.9
2014-Oct-29 14:33N 23°05' E 113°26'659124905.8
2014-Oct-29 14:33N 31°26' E 121°29'533239810.2
2014-Oct-29 14:33N 40°18' E 122°05'502904361.2
2014-Oct-29 14:33N 32°01' E 120°32'5422149010.5
2014-Oct-29 14:31N 48°32' W 123°01'62026517.4
2014-Oct-29 13:34N 23°05' E 113°26'655393205.0
2014-Oct-29 13:33N 32°01' E 120°32'607225.1
2014-Oct-29 13:33N 31°26' E 121°29'5409143169.5
2014-Oct-29 13:31N 48°32' W 123°01'494976460.0
2014-Oct-29 13:27N 40°18' E 122°05'502562.9
2014-Oct-29 12:33N 32°01' E 120°31'6019718.2
2014-Oct-29 12:33N 31°26' E 121°29'65923040.9
2014-Oct-29 12:31N 23°05' E 113°26'6202558217.8
2014-Oct-29 12:31N 48°32' W 123°01'494929991.9
2014-Oct-29 12:21N 40°18' E 122°05'11231420.3
2014-Oct-29 11:33N 23°05' E 113°26'655157282.7
2014-Oct-29 11:33N 32°01' E 120°31'50278634.7
2014-Oct-29 11:33N 40°18' E 122°05'4949147232.8
2014-Oct-29 11:31N 48°32' W 123°01'540983926.9
2014-Oct-29 11:27N 31°26' E 121°29'6067.9
2014-Oct-29 10:34N 32°01' E 120°31'50236172.0
2014-Oct-29 10:33N 40°18' E 122°05'11231347875.3
2014-Oct-29 10:33N 23°05' E 113°26'6202189226.4
2014-Oct-29 10:31N 48°32' W 123°01'540932183.6
2014-Oct-29 10:21N 31°26' E 121°29'6076.1
2014-Oct-29 09:33N 32°01' E 120°31'50278633.8
2014-Oct-29 09:33N 40°18' E 122°05'533213164.6
2014-Oct-29 09:33N 31°26' E 121°29'659237321.0
2014-Oct-29 09:32N 23°05' E 113°26'620279461.6
2014-Oct-29 09:28N 48°32' W 123°01'54225982.3
2014-Oct-29 08:33N 32°01' E 120°31'50242060.4
2014-Oct-29 08:33N 40°18' E 122°05'1123252726.6
2014-Oct-29 08:32N 23°05' E 113°26'6202225542.6
2014-Oct-29 08:31N 48°32' W 123°01'5409118726.0
2014-Oct-29 08:28N 31°26' E 121°29'659715.1
2014-Oct-29 07:33N 23°05' E 113°26'11234043548.3
2014-Oct-29 07:33N 40°18' E 122°05'502120576.1
2014-Oct-29 07:32N 32°01' E 120°31'6036160.5
2014-Oct-29 07:32N 31°26' E 121°29'5409207139.0
2014-Oct-29 07:31N 48°32' W 123°01'54225679.5
2014-Oct-29 06:33N 32°01' E 120°32'655392823.5
2014-Oct-29 06:33N 23°06' E 113°26'65932931.3
2014-Oct-29 06:32N 31°26' E 121°29'5409231798.4
2014-Oct-29 06:31N 48°32' W 123°01'494970976.8
2014-Oct-29 06:27N 40°18' E 122°05'502567.7
2014-Oct-29 05:33N 32°01' E 120°32'655294617.6
2014-Oct-29 05:33N 23°06' E 113°26'112387848.7
2014-Oct-29 05:33N 40°18' E 122°05'5336310.8
2014-Oct-29 05:27N 31°26' E 121°29'540937158.5
2014-Oct-29 05:19N 48°32' W 123°01'54227181.9
2014-Oct-29 04:33N 32°01' E 120°32'65553566.8
2014-Oct-29 04:33N 23°06' E 113°26'1123449002.3
2014-Oct-29 04:33N 40°18' E 122°05'5336352.6
2014-Oct-29 04:28N 31°26' E 121°29'5409116593.2
2014-Oct-29 04:25N 48°32' W 123°01'62027202.0
2014-Oct-29 03:33N 23°06' E 113°26'655785646.9
2014-Oct-29 03:33N 32°01' E 120°32'50253197.1
2014-Oct-29 03:32N 40°18' E 122°05'4949172962.9
2014-Oct-29 03:31N 48°32' W 123°01'540988909.0
2014-Oct-29 03:27N 31°26' E 121°29'6067.0
2014-Oct-29 02:33N 32°01' E 120°32'655294633.4
2014-Oct-29 02:33N 23°06' E 113°26'6202161786.1
2014-Oct-29 02:31N 48°32' W 123°01'540984290.3
2014-Oct-29 02:27N 31°26' E 121°29'53368518.0
2014-Oct-29 02:26N 40°18' E 122°05'0 0.0
2014-Oct-29 01:32N 40°18' E 122°05'1127169066.6
2014-Oct-29 01:32N 23°02' E 113°23'66361243.4
2014-Oct-29 01:31N 31°26' E 121°29'609025.7
2014-Oct-29 01:31N 32°01' E 120°32'54221220022.4
2014-Oct-29 01:31N 48°32' W 123°01'54225681.1
2014-Oct-29 00:33N 32°01' E 120°32'50226995.5
2014-Oct-29 00:32N 40°18' E 122°05'53332516.4
2014-Oct-29 00:31N 31°26' E 121°29'540949045.8
2014-Oct-29 00:25N 48°32' W 123°01'5847725879.7
2014-Oct-29 00:24N 24°53' E 119°03'3311034.6
2014-Oct-29 00:05N 23°03' E 113°21'326615.7
2014-Oct-28 23:33N 24°49' E 118°58'326106849.7
2014-Oct-28 23:33N 23°03' E 113°21'660169688.4
2014-Oct-28 23:33N 32°01' E 120°31'50266986.7
2014-Oct-28 23:32N 40°18' E 122°05'4949185574.7
2014-Oct-28 23:31N 48°32' W 123°01'5409512422.3
2014-Oct-28 23:30N 31°25' E 121°29'533553.0
2014-Oct-28 22:32N 40°18' E 122°05'53314436.6
2014-Oct-28 22:30N 31°25' E 121°29'5409142132.9
2014-Oct-28 22:28N 48°32' W 123°01'5862586185.8
2014-Oct-28 22:27N 24°44' E 118°54'4383573.4
2014-Oct-28 22:20N 31°58' E 120°06'64434108.5
2014-Oct-28 22:19N 23°03' E 113°21'0 0.0
2014-Oct-28 21:33N 23°03' E 113°21'66035995.0
2014-Oct-28 21:32N 32°01' E 120°31'5422221822.8
2014-Oct-28 21:31N 48°32' W 123°01'5409397388.7
2014-Oct-28 21:30N 31°25' E 121°29'725866.8
2014-Oct-28 21:29N 31°57' E 120°13'5093401.1
2014-Oct-28 21:20N 40°18' E 122°05'502644.1
2014-Oct-28 20:33N 32°01' E 120°31'101868.6
2014-Oct-28 20:33N 31°58' E 120°20'65183751.7
2014-Oct-28 20:33N 23°03' E 113°21'1127169055.3
2014-Oct-28 20:32N 40°18' E 122°05'53313427.0
2014-Oct-28 20:30N 31°25' E 121°29'5409153323.2
2014-Oct-28 20:28N 48°32' W 123°01'54225978.7
2014-Oct-28 19:33N 32°01' E 120°32'102475.0
2014-Oct-28 19:33N 31°58' E 120°20'50733187.4
2014-Oct-28 19:32N 40°18' E 122°05'4949209590.2
2014-Oct-28 19:31N 48°32' W 123°01'5409347715.2
2014-Oct-28 19:30N 31°25' E 121°29'66414224.1
2014-Oct-28 19:27N 23°03' E 113°21'660736.2
2014-Oct-28 18:33N 32°01' E 120°32'102855.7
2014-Oct-28 18:33N 31°58' E 120°20'50736505.7
2014-Oct-28 18:32N 40°18' E 122°05'4949214640.6
2014-Oct-28 18:31N 48°32' W 123°01'5409319213.9
2014-Oct-28 18:30N 31°25' E 121°29'6164.1
2014-Oct-28 17:33N 32°01' E 120°32'103713.1
2014-Oct-28 17:33N 31°58' E 120°20'50742448.5
2014-Oct-28 17:32N 40°18' E 122°05'4949209590.2
2014-Oct-28 17:31N 48°32' W 123°01'5412187323.8
2014-Oct-28 17:29N 31°17' E 121°34'9171.5
2014-Oct-28 17:26N 31°25' E 121°29'66416946.9
2014-Oct-28 17:24N 23°03' E 113°21'662784.7
2014-Oct-28 16:33N 31°21' E 121°31'64115651.7
2014-Oct-28 16:33N 32°01' E 120°32'103376.2
2014-Oct-28 16:33N 31°58' E 120°20'50742449.0
2014-Oct-28 16:32N 40°18' E 122°05'4949228399.8
2014-Oct-28 16:31N 48°32' W 123°01'5409278172.5
2014-Oct-28 16:30N 31°25' E 121°29'2 2.6
2014-Oct-28 15:34N 31°24' E 121°31'6332396.8
2014-Oct-28 15:33N 32°01' E 120°32'101003.4
2014-Oct-28 15:33N 31°58' E 120°20'50748033.8
2014-Oct-28 15:32N 40°18' E 122°05'4949237535.8
2014-Oct-28 15:31N 48°32' W 123°01'5409246482.0
2014-Oct-28 15:30N 31°25' E 121°29'6164.5
2014-Oct-28 14:33N 32°01' E 120°32'5818912.8
2014-Oct-28 14:33N 31°28' E 121°27'53132395.1
2014-Oct-28 14:32N 40°18' E 122°05'494970415.7
2014-Oct-28 14:28N 48°32' W 123°01'5409154540.4
2014-Oct-28 14:26N 31°25' E 121°29'0 0.0
2014-Oct-28 13:30N 31°25' E 121°29'5409194720.8
2014-Oct-28 13:28N 48°32' W 123°01'4949161956.1
2014-Oct-28 13:26N 40°18' E 122°05'0 0.0
2014-Oct-28 12:32N 40°18' E 122°05'53311497.5
2014-Oct-28 12:29N 31°25' E 121°29'540974038.3
2014-Oct-28 12:25N 48°32' W 123°01'54096190.0
2014-Oct-28 11:32N 31°40' E 121°12'405810.7
2014-Oct-28 11:32N 32°01' E 120°31'502452187.2
2014-Oct-28 11:32N 40°18' E 122°05'4949265898.1
2014-Oct-28 11:31N 48°32' W 123°01'5409190902.4
2014-Oct-28 11:29N 31°25' E 121°29'6164.9
2014-Oct-28 10:33N 32°01' E 120°31'50226597.4
2014-Oct-28 10:32N 40°18' E 122°05'4949274079.7
2014-Oct-28 10:31N 48°32' W 123°01'540941518.2
2014-Oct-28 10:23N 31°25' E 121°29'6173.1
2014-Oct-28 09:33N 32°01' E 120°31'331628.7
2014-Oct-28 09:32N 31°47' E 121°06'5409266720.8
2014-Oct-28 09:31N 48°32' W 123°01'494959383.9
2014-Oct-28 09:26N 40°18' E 122°05'53341740.4
2014-Oct-28 09:25N 31°25' E 121°29'664108620.2
2014-Oct-28 09:25N 23°03' E 113°21'660762.9
2014-Oct-28 08:33N 32°01' E 120°31'50231729.8
2014-Oct-28 08:32N 40°18' E 122°05'494929642.6
2014-Oct-28 08:22N 48°32' W 123°01'540936670.5
2014-Oct-28 08:13N 31°25' E 121°29'6191.7
2014-Oct-28 07:33N 32°01' E 120°31'50220788.5
2014-Oct-28 07:32N 40°18' E 122°05'5332112.3
2014-Oct-28 07:17N 31°25' E 121°29'540984661.0
2014-Oct-28 07:13N 48°32' W 123°01'54228198.4
2014-Oct-28 06:33N 32°01' E 120°32'5422140434.2
2014-Oct-28 06:31N 48°32' W 123°01'540866223.1
2014-Oct-28 06:26N 31°24' E 121°31'535160379.8
2014-Oct-28 06:26N 40°18' E 122°05'112710118.0
2014-Oct-28 06:19N 23°03' E 113°21'660864.8
2014-Oct-28 05:33N 32°01' E 120°32'50219659.8
2014-Oct-28 05:32N 40°18' E 122°05'11272028653.1
2014-Oct-28 05:32N 23°03' E 113°21'65247872.5
2014-Oct-28 05:31N 31°58' E 120°20'54339780288.6
2014-Oct-28 05:31N 48°32' W 123°01'54225617.4
2014-Oct-28 04:33N 32°01' E 120°32'66025273.0
2014-Oct-28 04:31N 23°03' E 113°21'65275669.4
2014-Oct-28 04:31N 31°58' E 120°20'5075963.2
2014-Oct-28 04:26N 40°18' E 122°05'4949336135.5
2014-Oct-28 04:25N 48°32' W 123°01'62097233.3
2014-Oct-28 03:33N 23°03' E 113°21'112739391.3
2014-Oct-28 03:32N 40°18' E 122°05'4949371149.7
2014-Oct-28 03:31N 48°32' W 123°01'54349780302.6
2014-Oct-28 03:31N 31°58' E 120°20'1010.4
2014-Oct-28 02:32N 32°01' E 120°32'5422433785.7
2014-Oct-28 02:31N 48°32' W 123°01'54333912117.5
2014-Oct-28 02:31N 31°58' E 120°20'65218917.5
2014-Oct-28 02:29N 23°03' E 113°21'11277472.1
2014-Oct-28 02:20N 40°18' E 122°05'502642.1
2014-Oct-28 01:33N 32°01' E 120°32'10313.2
2014-Oct-28 01:31N 31°58' E 120°20'65237835.0
2014-Oct-28 01:30N 23°03' E 113°21'6209201358.4
2014-Oct-28 01:28N 48°32' W 123°01'54225899.2
2014-Oct-28 00:33N 32°01' E 120°32'66039594.4
2014-Oct-28 00:32N 23°03' E 113°21'6209447015.6
2014-Oct-28 00:31N 48°32' W 123°01'54332173397.5
2014-Oct-28 00:31N 31°58' E 120°20'10 9.9
2014-Oct-27 23:33N 32°01' E 120°30'5423189529.4
2014-Oct-27 23:31N 48°32' W 123°01'54341304043.3
2014-Oct-27 23:31N 31°58' E 120°20'8 8.7
2014-Oct-27 22:32N 32°02' E 120°29'5424314923.9
2014-Oct-27 22:31N 48°32' W 123°01'54341150640.7
2014-Oct-27 22:31N 31°58' E 120°20'9 9.0
2014-Oct-27 21:33N 32°02' E 120°29'9181.2
2014-Oct-27 21:31N 31°58' E 120°20'543457701.8
2014-Oct-27 21:25N 48°32' W 123°01'54246176.9
2014-Oct-27 20:32N 32°02' E 120°29'5424256910.3
2014-Oct-27 20:31N 48°32' W 123°01'5434592746.4
2014-Oct-27 20:30N 31°58' E 120°20'0 0.0
2014-Oct-27 19:33N 31°58' E 120°20'543360559.1
2014-Oct-27 19:28N 48°32' W 123°01'54335958.1
2014-Oct-27 18:33N 31°58' E 120°20'5433145974.6
2014-Oct-27 18:31N 48°32' W 123°01'59001117955.6
2014-Oct-27 18:31N 24°30' E 118°20'4581261.7
2014-Oct-27 18:09N 31°56' E 120°16'4 6.7
2014-Oct-27 17:33N 31°58' E 120°20'46219789.0
2014-Oct-27 17:32N 24°29' E 118°15'5904483080.2
2014-Oct-27 17:31N 48°32' W 123°01'54345620.9
2014-Oct-27 16:33N 31°58' E 120°20'543423342.0
2014-Oct-27 16:19N 48°32' W 123°01'2228109879.6
2014-Oct-27 16:18N 41°23' W 071°31'924912359.8
2014-Oct-27 15:33N 31°58' E 120°20'703434.6
2014-Oct-27 15:32N 31°22' E 121°30'5411486974.3
2014-Oct-27 15:31N 48°32' W 123°01'54335601.5
2014-Oct-27 14:33N 31°58' E 120°20'5433182809.1
2014-Oct-27 14:31N 48°32' W 123°01'54335591.9
2014-Oct-27 13:33N 31°58' E 120°20'694627.8
2014-Oct-27 13:32N 31°24' E 121°31'5409405653.0
2014-Oct-27 13:31N 48°32' W 123°01'54335583.9
2014-Oct-27 12:33N 31°58' E 120°20'63112816.2
2014-Oct-27 12:33N 31°29' E 121°25'5409207139.3
2014-Oct-27 12:31N 48°32' W 123°01'54345568.2
2014-Oct-27 11:33N 31°58' E 120°20'5434222283.3
2014-Oct-27 11:31N 48°32' W 123°01'54345568.2
2014-Oct-27 10:33N 31°58' E 120°20'5434227454.0
2014-Oct-27 10:31N 48°32' W 123°01'54345566.6
2014-Oct-27 09:33N 31°58' E 120°20'5434230129.5
2014-Oct-27 09:31N 48°32' W 123°01'54345563.4
2014-Oct-27 08:33N 31°58' E 120°20'65358734.6
2014-Oct-27 08:32N 23°02' E 113°20'6210508081.4
2014-Oct-27 08:31N 48°32' W 123°01'54345560.2
2014-Oct-27 07:32N 31°58' E 120°20'5434241492.9
2014-Oct-27 07:31N 48°32' W 123°01'6210266138.0
2014-Oct-27 07:30N 23°02' E 113°20'653683.1
2014-Oct-27 06:32N 31°58' E 120°20'5433260807.5
2014-Oct-27 06:31N 48°32' W 123°01'621020623.2
2014-Oct-27 06:13N 23°02' E 113°20'653960.6
2014-Oct-27 05:32N 31°58' E 120°20'372581.0
2014-Oct-27 05:31N 31°46' E 121°02'54121217741.1
2014-Oct-27 05:31N 48°32' W 123°01'49498907585.4
2014-Oct-27 05:31N 40°18' E 122°05'507516.8
2014-Oct-27 04:32N 31°58' E 120°20'5433287655.4
2014-Oct-27 04:31N 48°32' W 123°01'49494453791.6
2014-Oct-27 04:31N 40°18' E 122°05'5081550.0
2014-Oct-27 04:11N 32°00' E 119°58'64310196.5
2014-Oct-27 04:08N 23°03' E 113°21'66414221.6
2014-Oct-27 04:05N 31°51' E 120°53'4484.1
2014-Oct-27 03:33N 31°58' E 120°02'151009.9
2014-Oct-27 03:32N 31°58' E 120°20'5433296372.5
2014-Oct-27 03:31N 48°32' W 123°01'5411721486.9
2014-Oct-27 03:31N 31°22' E 121°29'46824.6
2014-Oct-27 03:27N 31°55' E 120°52'50612915.3
2014-Oct-27 03:25N 40°18' E 122°05'11274917.9
2014-Oct-27 03:11N 23°03' E 113°21'652999.5
2014-Oct-27 02:32N 31°58' E 120°20'109434.7
2014-Oct-27 02:32N 31°57' E 120°08'5444337894.5
2014-Oct-27 02:31N 48°32' W 123°01'49492969194.4
2014-Oct-27 02:31N 40°18' E 122°05'502902734.8
2014-Oct-27 02:31N 31°60' E 120°48'66824046.4
2014-Oct-27 02:29N 23°03' E 113°21'647694.7
2014-Oct-27 01:33N 31°56' E 120°14'510305768.5
2014-Oct-27 01:33N 40°18' E 122°05'11274057306.3
2014-Oct-27 01:33N 23°03' E 113°21'66451993.2
2014-Oct-27 01:33N 31°60' E 120°42'192565.7
2014-Oct-27 01:32N 31°58' E 120°20'543317173.4
2014-Oct-27 01:13N 48°32' W 123°01'54338227.7
2014-Oct-27 00:34N 31°59' E 120°20'506165535.5
2014-Oct-27 00:33N 40°18' E 122°05'503150913.2
2014-Oct-27 00:33N 31°60' E 120°35'13755.9
2014-Oct-27 00:32N 31°58' E 120°20'543313075.2
2014-Oct-27 00:07N 48°32' W 123°01'54259634.4
2014-Oct-26 23:33N 32°03' E 120°26'501901624.5
2014-Oct-26 23:33N 40°18' E 122°05'50723705.1
2014-Oct-26 23:32N 31°58' E 120°20'543447134.3
2014-Oct-26 23:25N 48°32' W 123°01'54196289.2
2014-Oct-26 22:33N 32°03' E 120°33'500299991.0
2014-Oct-26 22:33N 40°18' E 122°05'504164843.8
2014-Oct-26 22:33N 32°01' E 120°24'5253.8
2014-Oct-26 22:32N 31°58' E 120°20'543447363.1
2014-Oct-26 22:25N 48°32' W 123°01'54166285.9
2014-Oct-26 21:34N 32°00' E 120°40'172552.2
2014-Oct-26 21:33N 31°59' E 120°20'506303740.0
2014-Oct-26 21:33N 40°18' E 122°05'50733187.6
2014-Oct-26 21:32N 31°58' E 120°20'543425338.0
2014-Oct-26 21:19N 48°32' W 123°01'49496480.6
2014-Oct-26 20:33N 40°18' E 122°05'508107627.0
2014-Oct-26 20:33N 31°57' E 120°17'2135.3
2014-Oct-26 20:32N 31°58' E 120°20'261859.6
2014-Oct-26 20:31N 31°59' E 120°50'541054400.9
2014-Oct-26 20:25N 48°32' W 123°01'49495730.2
2014-Oct-26 19:33N 40°18' E 122°05'51083516.9
2014-Oct-26 19:33N 31°56' E 120°12'7417.7
2014-Oct-26 19:32N 31°58' E 120°20'5434425231.5
2014-Oct-26 19:31N 48°32' W 123°01'541531903.5
2014-Oct-26 19:21N 31°49' E 120°55'7 8.9
2014-Oct-26 18:34N 31°46' E 121°02'514185014.6
2014-Oct-26 18:33N 40°18' E 122°05'5076861.2
2014-Oct-26 18:29N 31°58' E 120°20'543315046.5
2014-Oct-26 18:07N 48°32' W 123°01'49498606.4
2014-Oct-26 17:33N 40°18' E 122°05'519155842.3
2014-Oct-26 17:33N 31°40' E 121°12'540916830.9
2014-Oct-26 17:13N 48°32' W 123°01'5433134899.5
2014-Oct-26 17:11N 31°58' E 120°20'507811.1
2014-Oct-26 16:33N 40°18' E 122°05'4949146026.1
2014-Oct-26 16:31N 48°32' W 123°01'540925028.4
2014-Oct-26 16:18N 31°33' E 121°21'526697.4
2014-Oct-26 15:33N 40°18' E 122°05'50721727.5
2014-Oct-26 15:32N 31°58' E 120°20'5433850455.1
2014-Oct-26 15:31N 48°32' W 123°01'540762999.1
2014-Oct-26 15:26N 31°28' E 121°27'93355.7
2014-Oct-26 15:10N 32°14' E 119°52'495800.7
2014-Oct-26 14:33N 40°18' E 122°05'5341920668.9
2014-Oct-26 14:33N 31°25' E 121°32'5407158244.2
2014-Oct-26 14:31N 48°32' W 123°01'543337472.2
2014-Oct-26 14:23N 31°58' E 120°20'507617.8
2014-Oct-26 13:33N 40°18' E 122°05'50716899.2
2014-Oct-26 13:32N 31°58' E 120°20'543398790.2
2014-Oct-26 13:28N 48°32' W 123°01'49495410.0
2014-Oct-26 12:33N 40°18' E 122°05'50716592.0
2014-Oct-26 12:32N 31°58' E 120°20'543452022.9
2014-Oct-26 12:25N 48°32' W 123°01'49495677.2
2014-Oct-26 11:33N 40°18' E 122°05'4949179951.2
2014-Oct-26 11:31N 48°32' W 123°01'5434113724.5
2014-Oct-26 11:28N 31°58' E 120°20'507552.4
2014-Oct-26 10:33N 40°18' E 122°05'4949141390.3
2014-Oct-26 10:31N 48°32' W 123°01'5434111141.5
2014-Oct-26 10:28N 31°58' E 120°20'507553.6
2014-Oct-26 09:33N 40°18' E 122°05'4949141390.2
2014-Oct-26 09:31N 48°32' W 123°01'54349780427.7
2014-Oct-26 09:31N 31°58' E 120°20'507524.8
2014-Oct-26 08:33N 40°18' E 122°05'4949149707.3
2014-Oct-26 08:31N 48°32' W 123°01'54343912179.8
2014-Oct-26 08:31N 31°58' E 120°20'507525.1
2014-Oct-26 07:33N 40°18' E 122°05'4949150976.0
2014-Oct-26 07:31N 48°32' W 123°01'54342794415.6
2014-Oct-26 07:31N 31°58' E 120°20'774725.8
2014-Oct-26 07:30N 31°21' E 121°40'537563.2
2014-Oct-26 06:33N 40°18' E 122°05'51343975.5
2014-Oct-26 06:32N 31°47' E 121°06'540881125.7
2014-Oct-26 06:28N 48°32' W 123°01'5433101877.2
2014-Oct-26 06:25N 31°58' E 120°20'4754.3
2014-Oct-26 05:33N 31°41' E 121°11'519266683.0
2014-Oct-26 05:33N 40°18' E 122°05'50713722.5
2014-Oct-26 05:31N 31°58' E 120°20'543318383.9
2014-Oct-26 05:13N 48°32' W 123°01'49497416.8
2014-Oct-26 04:33N 40°18' E 122°05'5075812.5
2014-Oct-26 04:28N 31°58' E 120°20'56802.8
2014-Oct-26 04:24N 31°34' E 121°19'540830613.4
2014-Oct-26 04:13N 48°32' W 123°01'49497367.7
2014-Oct-26 03:33N 40°18' E 122°05'50715466.7
2014-Oct-26 03:31N 31°58' E 120°20'543356861.7
2014-Oct-26 03:25N 48°32' W 123°01'540729096.1
2014-Oct-26 03:14N 31°30' E 121°26'14170.5
2014-Oct-26 03:09N 31°21' E 121°39'537894.4
2014-Oct-26 02:33N 40°18' E 122°05'531478327.1
2014-Oct-26 02:33N 31°27' E 121°30'7872.0
2014-Oct-26 02:33N 31°23' E 121°35'732389.3
2014-Oct-26 02:31N 31°58' E 120°20'543358042.8
2014-Oct-26 02:25N 48°32' W 123°01'49495706.3
2014-Oct-26 01:33N 40°18' E 122°05'53696392.2
2014-Oct-26 01:33N 31°23' E 121°34'3154.9
2014-Oct-26 01:32N 31°25' E 121°32'5407973207.8
2014-Oct-26 01:31N 48°32' W 123°01'5434782424.1
2014-Oct-26 01:31N 31°58' E 120°20'6529308.7
2014-Oct-26 01:27N 23°03' E 113°21'11271266.4
2014-Oct-26 00:33N 40°18' E 122°05'536101465.4
2014-Oct-26 00:33N 31°23' E 121°34'72534.7
2014-Oct-26 00:25N 31°58' E 120°20'65275736.9
2014-Oct-26 00:24N 23°03' E 113°19'11271324.5
2014-Oct-25 23:33N 40°18' E 122°05'53626052.2
2014-Oct-25 23:32N 31°23' E 121°34'5407432548.9
2014-Oct-25 23:31N 48°32' W 123°01'5433558870.0
2014-Oct-25 23:31N 31°58' E 120°20'65219249.3
2014-Oct-25 23:29N 23°03' E 113°19'11271221.4
2014-Oct-25 22:33N 40°18' E 122°05'536175258.5
2014-Oct-25 22:33N 31°23' E 121°34'25387.0
2014-Oct-25 22:29N 31°39' E 121°12'481749.8
2014-Oct-25 22:28N 31°58' E 120°20'65297743.3
2014-Oct-25 22:27N 23°03' E 113°21'620926864.2
2014-Oct-25 22:13N 48°32' W 123°01'49497401.4
2014-Oct-25 21:33N 40°18' E 122°05'536642614.4
2014-Oct-25 21:33N 31°23' E 121°34'5407176951.7
2014-Oct-25 21:31N 48°32' W 123°01'5434391217.5
2014-Oct-25 21:31N 31°58' E 120°20'42429.7
2014-Oct-25 21:25N 31°44' E 121°06'4248.9
2014-Oct-25 20:34N 31°58' E 120°20'72260149.8
2014-Oct-25 20:33N 31°23' E 121°34'536192784.3
2014-Oct-25 20:33N 40°18' E 122°05'494937744.0
2014-Oct-25 20:25N 48°32' W 123°01'54346271.5
2014-Oct-25 19:33N 31°58' E 120°20'50770198.8
2014-Oct-25 19:33N 40°18' E 122°05'4949185574.7
2014-Oct-25 19:31N 48°32' W 123°01'540764239.9
2014-Oct-25 19:26N 31°23' E 121°34'7281.8
2014-Oct-25 18:33N 31°58' E 120°20'50779352.6
2014-Oct-25 18:33N 40°18' E 122°05'4949187528.1
2014-Oct-25 18:31N 48°32' W 123°01'5407221189.6
2014-Oct-25 18:30N 31°23' E 121°34'54075738.5
2014-Oct-25 17:33N 48°32' W 123°01'54073244186.9
2014-Oct-25 17:33N 31°23' E 121°34'35148.4
2014-Oct-25 17:19N 31°45' E 121°03'39334.1
2014-Oct-25 17:12N 31°58' E 120°20'507779.3
2014-Oct-25 16:33N 40°18' E 122°05'5071825110.5
2014-Oct-25 16:33N 31°58' E 120°20'0 0.1
2014-Oct-25 15:33N 31°58' E 120°20'50748029.4
2014-Oct-25 15:33N 40°18' E 122°05'5428089.2
2014-Oct-25 15:29N 31°17' E 121°34'5 5.9
2014-Oct-25 14:33N 31°21' E 121°30'537276206.4
2014-Oct-25 14:33N 40°18' E 122°05'0 0.0
2014-Oct-25 13:33N 40°18' E 122°05'534128052.3
2014-Oct-25 13:33N 31°25' E 121°31'534536.4
2014-Oct-25 12:33N 40°18' E 122°05'53014336.1
2014-Oct-25 12:31N 31°29' E 121°25'67148.1
2014-Oct-25 12:04N 31°57' E 120°13'509989.8
2014-Oct-25 11:33N 40°18' E 122°05'50812701.3
2014-Oct-25 11:31N 31°57' E 120°17'58403.4
2014-Oct-25 11:22N 31°34' E 121°19'525643.2
2014-Oct-25 10:33N 40°18' E 122°05'50553458.3
2014-Oct-25 10:33N 31°60' E 120°22'613926186.3
2014-Oct-25 10:19N 33°37' W 117°55'6108392682.7
2014-Oct-25 10:18N 31°39' E 121°14'521703.5
2014-Oct-25 09:33N 40°18' E 122°05'501257783.5
2014-Oct-25 09:33N 32°02' E 120°29'412617.9
2014-Oct-25 09:32N 31°41' E 121°10'6110229128.0
2014-Oct-25 09:31N 33°37' W 117°55'57696027.1
2014-Oct-25 08:33N 40°17' E 122°03'50275247.0
2014-Oct-25 08:33N 32°01' E 120°30'71381.0
2014-Oct-25 08:33N 32°00' E 120°38'29162.8
2014-Oct-25 08:22N 31°45' E 121°06'3542.5
2014-Oct-25 07:33N 32°01' E 120°30'6603068.1
2014-Oct-25 07:20N 23°03' E 113°21'0 0.0
2014-Oct-25 06:31N 23°03' E 113°21'6604455.5
2014-Oct-25 06:22N 32°01' E 120°30'660784.3
2014-Oct-25 05:32N 23°03' E 113°21'66030064.1
2014-Oct-25 05:31N 32°01' E 120°30'30145.9
2014-Oct-25 05:18N 31°47' E 121°02'3037.3
2014-Oct-25 04:30N 32°01' E 120°30'39349.2
2014-Oct-25 04:23N 31°42' E 121°10'4350.9
2014-Oct-25 03:33N 32°01' E 120°25'657328.7
2014-Oct-25 01:33N 23°03' E 113°21'6662635.8
2014-Oct-25 01:18N 31°28' E 121°28'666795.5
2014-Oct-25 00:28N 23°03' E 113°21'66520465.9
2014-Oct-25 00:26N 31°26' E 121°30'4 4.6
2014-Oct-24 23:32N 31°22' E 121°29'610636572.5
2014-Oct-24 23:22N 33°37' W 117°55'9291151.2
2014-Oct-24 22:33N 48°38' W 122°52'54161499886.2
2014-Oct-24 22:33N 31°22' E 121°28'54165439.7
2014-Oct-24 21:33N 48°33' W 122°56'5416270775.1
2014-Oct-24 21:32N 31°22' E 121°28'610614423.8
2014-Oct-24 21:07N 33°37' W 117°55'610610738.6
2014-Oct-24 20:33N 31°22' E 121°28'0 0.0
2014-Oct-24 19:31N 31°22' E 121°28'0 0.0
2014-Oct-24 18:33N 31°22' E 121°28'0 0.0
2014-Oct-24 17:33N 31°22' E 121°28'0 0.0
2014-Oct-24 16:33N 31°22' E 121°28'0 0.0
2014-Oct-24 15:33N 31°22' E 121°28'0 0.0
2014-Oct-24 14:33N 31°22' E 121°28'662124.1
2014-Oct-24 09:13N 23°02' E 113°20'644978.7
2014-Oct-24 08:33N 31°59' E 120°01'6442233.7
2014-Oct-24 08:16N 23°02' E 113°20'6623310.2
2014-Oct-24 08:04N 31°22' E 121°28'75144.1
2014-Oct-24 07:33N 31°57' E 120°10'7654870.7
2014-Oct-24 07:32N 31°22' E 121°29'55217.5
2014-Oct-24 07:17N 32°02' E 120°45'6695988.9
2014-Oct-24 07:11N 23°02' E 113°20'6521054.3
2014-Oct-24 06:33N 31°58' E 120°18'734017.7
2014-Oct-24 06:32N 31°21' E 121°31'6635025.6
2014-Oct-24 06:24N 23°02' E 113°20'663729.8
2014-Oct-24 05:30N 31°21' E 121°31'66311051.7
2014-Oct-24 05:26N 23°02' E 113°20'663738.2
2014-Oct-24 04:32N 31°21' E 121°31'66314467.8
2014-Oct-24 04:30N 23°02' E 113°20'663705.8
2014-Oct-24 03:33N 31°21' E 121°31'662216665.5
2014-Oct-24 03:33N 23°03' E 113°21'662632.0
2014-Oct-24 02:30N 31°21' E 121°31'66227083.2
2014-Oct-24 02:29N 23°03' E 113°21'662640.2
2014-Oct-24 01:27N 31°21' E 121°31'6104221969.7
2014-Oct-24 01:25N 33°37' W 117°55'6829630362.7
2014-Oct-24 01:24N 23°03' E 113°21'662769.1
2014-Oct-24 00:33N 31°21' E 121°31'66227712.7
2014-Oct-24 00:31N 23°03' E 113°21'662329.3
2014-Oct-23 22:31N 31°21' E 121°31'0 0.0
2014-Oct-23 21:33N 31°21' E 121°31'0 0.0
2014-Oct-23 20:29N 31°21' E 121°31'0 0.0
2014-Oct-23 19:33N 31°21' E 121°31'7067.2
2014-Oct-23 18:31N 32°01' E 120°24'702947.9
2014-Oct-23 18:30N 31°21' E 121°31'0 0.0
2014-Oct-23 17:33N 31°21' E 121°31'0 0.0
2014-Oct-23 16:31N 31°21' E 121°31'0 0.0
2014-Oct-23 15:33N 31°21' E 121°31'0 0.0
2014-Oct-23 14:32N 31°21' E 121°31'0 0.0
2014-Oct-23 13:31N 31°21' E 121°31'0 0.0
2014-Oct-23 12:30N 31°21' E 121°31'0 0.0
2014-Oct-23 10:32N 31°21' E 121°31'0 0.0
2014-Oct-23 09:33N 31°21' E 121°31'533.2
2014-Oct-23 09:24N 31°16' E 121°34'5 6.1
2014-Oct-23 08:32N 31°21' E 121°31'66210013.5
2014-Oct-23 08:28N 23°03' E 113°21'65631070.5
2014-Oct-23 08:27N 31°13' E 121°30'656732.9
2014-Oct-23 07:33N 23°03' E 113°21'0 0.0
2014-Oct-23 06:22N 23°03' E 113°21'68293055.8
2014-Oct-23 04:08N 33°37' W 117°55'68298856.0
2014-Oct-23 03:22N 23°03' E 113°21'0 0.0
2014-Oct-23 02:33N 23°03' E 113°21'0 0.0
2014-Oct-23 01:33N 23°03' E 113°21'661561.7
2014-Oct-23 00:22N 31°22' E 121°28'5 1.2
2014-Oct-22 20:05N 31°19' E 121°33'5 0.8
2014-Oct-22 13:24N 31°22' E 121°28'5 5.4
2014-Oct-22 12:27N 31°19' E 121°33'662203.1
2014-Oct-22 09:11N 23°03' E 113°21'66223374.5
2014-Oct-22 09:09N 31°19' E 121°33'2828.3
2014-Oct-22 08:10N 31°40' E 121°12'  
Track history (hours):
 
Tides and Currents Weather Stations Pressure Air Temp Water Temp Dewpoint Dewpoint Depression Visibility Wind Speed Wind Dir Waves Ship Positions

Paulistana II

Last reported at 2014-Nov-01 07:33 UTC. Time now 2014-Nov-01 08:24 UTC.
Position N 31°21' E 121°27'.

Length 6 m.

Type: Pollution control. MMSI: 316014038.

Date/timePositionNaut miles runAvg speedWind from/ knotsBaromVisibWave heightAir tempDewpointWater temp
2014-Nov-01 07:33N 31°21' E 121°27'655336920.4
2014-Nov-01 07:33N 23°05' E 113°26'64715225.5
2014-Nov-01 07:31N 31°58' E 120°20'5433465724.4
2014-Nov-01 07:30N 48°32' W 123°01'5408846530.2
2014-Nov-01 07:30N 31°39' E 121°14'52031222.8
2014-Nov-01 07:29N 40°18' E 122°05'5032298.8
2014-Nov-01 07:16N 32°01' E 120°32'0 0.0
2014-Nov-01 06:33N 32°01' E 120°32'655157262.4
2014-Nov-01 06:33N 23°05' E 113°26'64716639.4
2014-Nov-01 06:31N 31°58' E 120°20'541060.5
2014-Nov-01 06:28N 31°36' E 121°18'540890135.6
2014-Nov-01 06:24N 48°32' W 123°01'4949212085.5
2014-Nov-01 06:23N 40°18' E 122°05'53616492.3
2014-Nov-01 06:21N 31°22' E 121°30'6379.3
2014-Nov-01 05:33N 32°01' E 120°32'655214477.0
2014-Nov-01 05:33N 23°05' E 113°26'66018423.8
2014-Nov-01 05:31N 31°33' E 121°20'5717042.3
2014-Nov-01 05:31N 31°58' E 120°20'5433543345.1
2014-Nov-01 05:30N 48°32' W 123°01'4949212085.5
2014-Nov-01 05:29N 40°18' E 122°05'502543.0
2014-Nov-01 04:33N 32°01' E 120°32'655294905.9
2014-Nov-01 04:33N 23°05' E 113°26'66027018.5
2014-Nov-01 04:32N 31°31' E 121°24'603754.1
2014-Nov-01 04:31N 31°58' E 120°20'5433630981.4
2014-Nov-01 04:30N 48°32' W 123°01'4949214640.8
2014-Nov-01 04:29N 40°18' E 122°05'11231220.9
2014-Nov-01 03:34N 23°05' E 113°26'65533228.6
2014-Nov-01 03:32N 32°01' E 120°32'5713710.3
2014-Nov-01 03:32N 31°29' E 121°27'642617.7
2014-Nov-01 03:31N 31°58' E 120°20'5433698586.6
2014-Nov-01 03:30N 48°32' W 123°01'494939414.1
2014-Nov-01 03:23N 40°18' E 122°05'502605.5
2014-Nov-01 02:33N 32°01' E 120°32'655294923.3
2014-Nov-01 02:33N 23°05' E 113°26'6601187228.8
2014-Nov-01 02:33N 31°26' E 121°29'671912.1
2014-Nov-01 02:31N 31°58' E 120°20'5433782419.1
2014-Nov-01 02:30N 48°32' W 123°01'4949183661.7
2014-Nov-01 02:29N 40°18' E 122°05'533575.6
2014-Nov-01 01:33N 31°26' E 121°29'60216988.7
2014-Nov-01 01:33N 32°01' E 120°31'655157282.8
2014-Nov-01 01:33N 23°05' E 113°26'6491168581.5
2014-Nov-01 01:33N 31°60' E 120°22'260.5
2014-Nov-01 01:31N 31°58' E 120°20'5433724462.2
2014-Nov-01 01:30N 48°32' W 123°01'4949187528.2
2014-Nov-01 01:29N 40°18' E 122°05'502547.6
2014-Nov-01 00:33N 32°01' E 120°31'655393209.8
2014-Nov-01 00:33N 23°05' E 113°26'65987897.3
2014-Nov-01 00:33N 31°26' E 121°29'622999.5
2014-Nov-01 00:32N 32°02' E 120°29'9489.0
2014-Nov-01 00:31N 31°58' E 120°20'5433815024.4
2014-Nov-01 00:30N 48°32' W 123°01'4949183661.7
2014-Nov-01 00:29N 40°18' E 122°05'507552.5
2014-Oct-31 23:33N 31°58' E 120°20'64786278.6
2014-Oct-31 23:33N 23°05' E 113°26'659169516.2
2014-Oct-31 23:33N 31°26' E 121°29'583456.6
2014-Oct-31 23:32N 32°01' E 120°35'5419199081.1
2014-Oct-31 23:30N 48°32' W 123°01'4949172962.8
2014-Oct-31 23:28N 40°18' E 122°05'507553.0
2014-Oct-31 22:33N 31°58' E 120°20'64793180.9
2014-Oct-31 22:33N 23°05' E 113°26'65998884.4
2014-Oct-31 22:33N 31°26' E 121°29'5409130678.3
2014-Oct-31 22:30N 48°32' W 123°01'4949176388.0
2014-Oct-31 22:28N 40°18' E 122°05'5023721.7
2014-Oct-31 22:20N 32°01' E 120°32'655836.9
2014-Oct-31 21:33N 23°05' E 113°26'65944777.6
2014-Oct-31 21:32N 31°26' E 121°29'5409140079.7
2014-Oct-31 21:30N 48°32' W 123°01'4949163442.1
2014-Oct-31 21:28N 40°18' E 122°05'11231225.7
2014-Oct-31 20:33N 23°05' E 113°26'9451919547.7
2014-Oct-31 20:33N 41°23' W 071°31'93391344793.9
2014-Oct-31 20:32N 31°26' E 121°29'5338060.9
2014-Oct-31 20:28N 40°18' E 122°05'494970695.2
2014-Oct-31 20:24N 48°32' W 123°01'62027325.7
2014-Oct-31 19:33N 23°05' E 113°26'65560494.0
2014-Oct-31 19:33N 32°01' E 120°32'92521448062.5
2014-Oct-31 19:32N 41°18' W 071°20'223961997.6
2014-Oct-31 19:30N 48°32' W 123°01'4949164955.3
2014-Oct-31 19:28N 40°18' E 122°05'5335593.3
2014-Oct-31 19:23N 31°26' E 121°29'6073.2
2014-Oct-31 18:33N 32°01' E 120°32'603010.6
2014-Oct-31 18:32N 31°26' E 121°29'659593302.5
2014-Oct-31 18:32N 23°05' E 113°26'6202202988.3
2014-Oct-31 18:30N 48°32' W 123°01'4949154914.5
2014-Oct-31 18:28N 40°18' E 122°05'11231227.2
2014-Oct-31 17:33N 23°05' E 113°26'65598302.0
2014-Oct-31 17:33N 32°01' E 120°32'603496.2
2014-Oct-31 17:32N 31°26' E 121°29'5409187221.8
2014-Oct-31 17:30N 48°32' W 123°01'4949154914.6
2014-Oct-31 17:28N 40°18' E 122°05'502548.9
2014-Oct-31 16:33N 32°01' E 120°32'602382.2
2014-Oct-31 16:32N 31°26' E 121°29'5409196677.6
2014-Oct-31 16:30N 48°32' W 123°01'4949156273.5
2014-Oct-31 16:28N 40°18' E 122°05'11231204.9
2014-Oct-31 15:32N 23°05' E 113°26'65965923.0
2014-Oct-31 15:32N 31°26' E 121°29'5338964.9
2014-Oct-31 15:28N 40°18' E 122°05'494929692.0
2014-Oct-31 15:18N 48°32' W 123°01'54227272.9
2014-Oct-31 14:33N 32°01' E 120°32'65587380.2
2014-Oct-31 14:33N 23°05' E 113°26'65928593.1
2014-Oct-31 14:32N 31°26' E 121°29'5409226407.6
2014-Oct-31 14:30N 48°32' W 123°01'4949149707.3
2014-Oct-31 14:28N 40°18' E 122°05'8791146523.8
2014-Oct-31 14:25N 41°09' W 071°15'925510849.7
2014-Oct-31 13:33N 32°01' E 120°32'655589833.4
2014-Oct-31 13:33N 23°05' E 113°26'65922602.0
2014-Oct-31 13:32N 31°26' E 121°29'5409234591.0
2014-Oct-31 13:30N 48°32' W 123°01'4949140276.9
2014-Oct-31 13:28N 40°18' E 122°05'502550.1
2014-Oct-31 12:33N 32°01' E 120°31'65562085.3
2014-Oct-31 12:33N 23°05' E 113°26'65932509.7
2014-Oct-31 12:31N 31°26' E 121°29'5339640.6
2014-Oct-31 12:28N 40°18' E 122°05'494929941.5
2014-Oct-31 12:18N 48°32' W 123°01'22362983.0
2014-Oct-31 11:33N 41°18' W 071°23'92541959620.2
2014-Oct-31 11:33N 32°01' E 120°31'655786419.4
2014-Oct-31 11:33N 23°05' E 113°26'65926079.4
2014-Oct-31 11:31N 31°26' E 121°29'5339838.3
2014-Oct-31 11:28N 40°18' E 122°05'494976460.0
2014-Oct-31 11:24N 48°32' W 123°01'62027240.2
2014-Oct-31 10:33N 23°05' E 113°26'655117962.9
2014-Oct-31 10:33N 32°01' E 120°31'603099.8
2014-Oct-31 10:31N 31°26' E 121°29'5409290612.6
2014-Oct-31 10:30N 48°32' W 123°01'4949134963.5
2014-Oct-31 10:28N 40°18' E 122°05'11231221.3
2014-Oct-31 09:33N 23°05' E 113°26'65924466.2
2014-Oct-31 09:31N 31°26' E 121°29'5409324517.4
2014-Oct-31 09:30N 48°32' W 123°01'494936283.5
2014-Oct-31 09:22N 40°18' E 122°05'533657.9
2014-Oct-31 08:33N 31°26' E 121°29'65965922.9
2014-Oct-31 08:33N 23°05' E 113°26'6202144056.2
2014-Oct-31 08:30N 48°32' W 123°01'4949138102.2
2014-Oct-31 08:28N 40°18' E 122°05'5021274.6
2014-Oct-31 08:04N 32°01' E 120°32'0 0.0
2014-Oct-31 07:33N 32°01' E 120°32'655157283.1
2014-Oct-31 07:33N 23°05' E 113°26'112313478.8
2014-Oct-31 07:28N 40°18' E 122°05'494982477.7
2014-Oct-31 07:24N 48°32' W 123°01'540928466.5
2014-Oct-31 07:13N 31°26' E 121°29'659996.7
2014-Oct-31 06:33N 23°05' E 113°26'655786415.7
2014-Oct-31 06:33N 32°01' E 120°32'6036127.4
2014-Oct-31 06:33N 31°26' E 121°29'5409113865.9
2014-Oct-31 06:30N 48°32' W 123°01'4949129095.5
2014-Oct-31 06:28N 40°18' E 122°05'533582.1
2014-Oct-31 05:33N 31°26' E 121°29'659395535.0
2014-Oct-31 05:33N 23°05' E 113°26'655131069.3
2014-Oct-31 05:33N 32°01' E 120°32'542238962.8
2014-Oct-31 05:24N 48°32' W 123°01'4949123716.6
2014-Oct-31 05:22N 40°18' E 122°05'502613.3
2014-Oct-31 04:33N 32°01' E 120°32'655196603.9
2014-Oct-31 04:33N 23°05' E 113°26'6202166632.2
2014-Oct-31 04:30N 48°32' W 123°01'540956601.9
2014-Oct-31 04:25N 31°26' E 121°29'5333689.4
2014-Oct-31 04:16N 40°18' E 122°05'502703.8
2014-Oct-31 03:33N 32°01' E 120°32'655181480.6
2014-Oct-31 03:33N 23°05' E 113°26'659197767.5
2014-Oct-31 03:33N 31°26' E 121°29'5409138092.6
2014-Oct-31 03:30N 48°32' W 123°01'4949123716.6
2014-Oct-31 03:28N 40°18' E 122°05'502552.3
2014-Oct-31 02:33N 32°01' E 120°32'65547185.3
2014-Oct-31 02:33N 23°05' E 113°26'6202170448.4
2014-Oct-31 02:30N 48°32' W 123°01'4949118767.9
2014-Oct-31 02:28N 40°18' E 122°05'502552.8
2014-Oct-31 01:33N 32°01' E 120°32'655337037.9
2014-Oct-31 01:33N 23°05' E 113°26'6202132909.1
2014-Oct-31 01:30N 48°32' W 123°01'494934727.5
2014-Oct-31 01:22N 40°18' E 122°05'502622.4
2014-Oct-31 00:33N 32°01' E 120°31'65532767.7
2014-Oct-31 00:32N 23°05' E 113°26'6202202988.4
2014-Oct-31 00:30N 48°32' W 123°01'4949113472.4
2014-Oct-31 00:28N 40°18' E 122°05'11231243.1
2014-Oct-30 23:34N 23°05' E 113°26'62022232872.9
2014-Oct-30 23:33N 48°32' W 123°01'5422929543.0
2014-Oct-30 23:33N 32°01' E 120°31'5025723.4
2014-Oct-30 23:28N 40°18' E 122°05'502555.6
2014-Oct-30 22:33N 32°01' E 120°31'655124171.5
2014-Oct-30 22:33N 23°05' E 113°26'6202132122.7
2014-Oct-30 22:30N 48°32' W 123°01'5409973552.7
2014-Oct-30 22:30N 31°26' E 121°29'53314106.5
2014-Oct-30 22:28N 40°18' E 122°05'4971950.5
2014-Oct-30 22:12N 32°04' E 120°45'5479.8
2014-Oct-30 21:32N 31°26' E 121°29'659296651.4
2014-Oct-30 21:32N 23°05' E 113°26'655471849.6
2014-Oct-30 21:32N 32°01' E 120°32'5422216893.1
2014-Oct-30 21:30N 48°32' W 123°01'4949109970.3
2014-Oct-30 21:28N 40°18' E 122°05'497179054.1
2014-Oct-30 21:28N 32°04' E 120°45'1213.4
2014-Oct-30 20:33N 32°01' E 120°32'603737.1
2014-Oct-30 20:32N 31°26' E 121°29'659593306.7
2014-Oct-30 20:32N 23°05' E 113°26'6202237539.7
2014-Oct-30 20:30N 48°32' W 123°01'4949109295.5
2014-Oct-30 20:28N 40°18' E 122°05'502556.5
2014-Oct-30 19:34N 32°01' E 120°32'655214477.1
2014-Oct-30 19:33N 23°05' E 113°26'65926968.5
2014-Oct-30 19:32N 31°26' E 121°29'5409221262.0
2014-Oct-30 19:30N 48°32' W 123°01'4949109970.2
2014-Oct-30 19:28N 40°18' E 122°05'11231236.6
2014-Oct-30 18:33N 23°05' E 113°26'65598302.7
2014-Oct-30 18:33N 32°01' E 120°32'603496.2
2014-Oct-30 18:32N 31°26' E 121°29'540944052.2
2014-Oct-30 18:24N 48°32' W 123°01'4949106042.7
2014-Oct-30 18:22N 40°18' E 122°05'502627.2
2014-Oct-30 17:34N 32°01' E 120°32'65532767.3
2014-Oct-30 17:32N 23°05' E 113°26'65955191.3
2014-Oct-30 17:32N 31°26' E 121°29'5337993.7
2014-Oct-30 17:28N 40°18' E 122°05'494992787.4
2014-Oct-30 17:24N 48°32' W 123°01'22322606.2
2014-Oct-30 16:33N 41°20' W 071°28'94501479150.9
2014-Oct-30 16:33N 23°05' E 113°26'65932070.6
2014-Oct-30 16:31N 31°26' E 121°29'5409330018.0
2014-Oct-30 16:30N 48°32' W 123°01'4949101801.0
2014-Oct-30 16:28N 40°18' E 122°05'502558.6
2014-Oct-30 15:34N 32°01' E 120°32'5021808700.9
2014-Oct-30 15:34N 40°18' E 122°05'1123336970.5
2014-Oct-30 15:33N 23°05' E 113°26'65920112.1
2014-Oct-30 15:31N 31°26' E 121°29'5409347697.6
2014-Oct-30 15:30N 48°32' W 123°01'62026532.7
2014-Oct-30 14:33N 23°05' E 113°26'65587380.2
2014-Oct-30 14:33N 32°01' E 120°32'5422125937.8
2014-Oct-30 14:30N 48°32' W 123°01'5409252871.0
2014-Oct-30 14:29N 31°26' E 121°29'53320194.5
2014-Oct-30 14:28N 40°18' E 122°05'0 0.0
2014-Oct-30 13:33N 40°18' E 122°05'494917815170.8
2014-Oct-30 13:33N 48°32' W 123°01'6202475078.9
2014-Oct-30 13:33N 23°05' E 113°26'65926968.3
2014-Oct-30 13:31N 31°26' E 121°29'60373.1
2014-Oct-30 13:21N 32°01' E 120°32'655818.9
2014-Oct-30 12:33N 23°05' E 113°26'11232021812.9
2014-Oct-30 12:33N 40°18' E 122°05'50278633.8
2014-Oct-30 12:33N 32°01' E 120°31'601793.4
2014-Oct-30 12:31N 31°26' E 121°29'659687.3
2014-Oct-30 11:33N 23°05' E 113°26'6552359258.3
2014-Oct-30 11:33N 32°01' E 120°31'5422107847.4
2014-Oct-30 11:30N 48°32' W 123°01'5409226407.4
2014-Oct-30 11:29N 31°26' E 121°29'5334188.8
2014-Oct-30 11:21N 40°18' E 122°05'502628.4
2014-Oct-30 10:33N 32°01' E 120°31'502452144.4
2014-Oct-30 10:33N 40°18' E 122°05'112356952.5
2014-Oct-30 10:32N 23°05' E 113°26'6202216783.7
2014-Oct-30 10:30N 48°32' W 123°01'5409234590.9
2014-Oct-30 10:29N 31°26' E 121°29'659711.4
2014-Oct-30 09:33N 23°05' E 113°26'1123673937.6
2014-Oct-30 09:33N 40°18' E 122°05'502106386.9
2014-Oct-30 09:33N 32°01' E 120°31'601517.5
2014-Oct-30 09:31N 31°26' E 121°29'54091298070.3
2014-Oct-30 09:30N 48°32' W 123°01'62026481.5
2014-Oct-30 08:33N 23°05' E 113°26'65916480.6
2014-Oct-30 08:31N 31°26' E 121°29'54091947105.4
2014-Oct-30 08:30N 48°32' W 123°01'494993273.1
2014-Oct-30 08:27N 40°18' E 122°05'11231250.0
2014-Oct-30 07:33N 23°05' E 113°26'65913960.1
2014-Oct-30 07:31N 31°26' E 121°29'54096490354.5
2014-Oct-30 07:30N 48°32' W 123°01'494992787.4
2014-Oct-30 07:27N 40°18' E 122°05'0 0.0
2014-Oct-30 06:33N 40°18' E 122°05'112372207.6
2014-Oct-30 06:32N 23°05' E 113°26'65910229.4
2014-Oct-30 06:29N 31°26' E 121°29'540981129.4
2014-Oct-30 06:25N 48°32' W 123°01'62027280.3
2014-Oct-30 05:33N 23°05' E 113°26'1123673937.6
2014-Oct-30 05:33N 40°18' E 122°05'4949107320.4
2014-Oct-30 05:31N 48°32' W 123°01'54091390790.2
2014-Oct-30 05:30N 31°26' E 121°29'659691.1
2014-Oct-30 04:33N 23°05' E 113°26'6202145939.3
2014-Oct-30 04:31N 48°32' W 123°01'5409885047.9
2014-Oct-30 04:30N 31°26' E 121°29'3737.0
2014-Oct-30 04:30N 31°22' E 121°29'6311268.6
2014-Oct-30 04:30N 32°01' E 120°32'5023631.9
2014-Oct-30 04:21N 40°18' E 122°05'11231408.4
2014-Oct-30 03:33N 23°05' E 113°26'655589811.8
2014-Oct-30 03:33N 32°01' E 120°32'502361740.2
2014-Oct-30 03:33N 40°18' E 122°05'5332867.7
2014-Oct-30 03:22N 31°26' E 121°29'540990986.3
2014-Oct-30 03:19N 48°32' W 123°01'62028251.6
2014-Oct-30 02:33N 23°05' E 113°26'1123252727.9
2014-Oct-30 02:33N 40°18' E 122°05'502258385.8
2014-Oct-30 02:33N 32°01' E 120°32'5422130135.7
2014-Oct-30 02:31N 48°32' W 123°01'5409486776.6
2014-Oct-30 02:30N 31°26' E 121°29'533563.8
2014-Oct-30 01:33N 40°18' E 122°05'1123808725.2
2014-Oct-30 01:33N 23°05' E 113°26'65556172.6
2014-Oct-30 01:32N 32°01' E 120°32'5422179085.9
2014-Oct-30 01:31N 48°32' W 123°01'5409432690.7
2014-Oct-30 01:30N 31°26' E 121°29'6064.2
2014-Oct-30 00:33N 32°01' E 120°32'50269565.4
2014-Oct-30 00:33N 40°18' E 122°05'11232021823.0
2014-Oct-30 00:33N 23°05' E 113°26'6202150869.8
2014-Oct-30 00:31N 48°32' W 123°01'5409116593.3
2014-Oct-30 00:28N 31°26' E 121°29'533584.4
2014-Oct-29 23:33N 40°18' E 122°05'502113036.1
2014-Oct-29 23:33N 32°01' E 120°31'65528086.6
2014-Oct-29 23:31N 23°05' E 113°26'6202446574.7
2014-Oct-29 23:31N 48°32' W 123°01'5409278158.3
2014-Oct-29 23:29N 31°26' E 121°29'0 0.0
2014-Oct-29 22:34N 31°26' E 121°29'659339030.1
2014-Oct-29 22:33N 23°05' E 113°26'1123212823.5
2014-Oct-29 22:33N 40°18' E 122°05'50229171.0
2014-Oct-29 22:32N 32°01' E 120°31'5422219330.5
2014-Oct-29 22:31N 48°32' W 123°01'54095685.0
2014-Oct-29 21:33N 31°26' E 121°29'6054250.3
2014-Oct-29 21:33N 32°01' E 120°31'655107239.0
2014-Oct-29 21:33N 23°05' E 113°26'6202151896.2
2014-Oct-29 21:31N 48°32' W 123°01'494982097.6
2014-Oct-29 21:27N 40°18' E 122°05'51411205.2
2014-Oct-29 21:24N 31°46' E 121°06'2833.3
2014-Oct-29 20:33N 31°26' E 121°29'6030964.5
2014-Oct-29 20:33N 32°01' E 120°32'3812448.7
2014-Oct-29 20:33N 31°42' E 121°10'6611189365.6
2014-Oct-29 20:33N 23°05' E 113°26'620267868.5
2014-Oct-29 20:28N 48°32' W 123°01'4949509004.9
2014-Oct-29 20:27N 40°18' E 122°05'11231257.0
2014-Oct-29 19:33N 23°05' E 113°26'655235926.5
2014-Oct-29 19:33N 32°01' E 120°32'502139130.8
2014-Oct-29 19:33N 40°18' E 122°05'4949123716.5
2014-Oct-29 19:31N 48°32' W 123°01'5409209366.4
2014-Oct-29 19:29N 31°26' E 121°29'6065.1
2014-Oct-29 18:34N 32°01' E 120°32'655262140.6
2014-Oct-29 18:33N 23°05' E 113°26'659593306.7
2014-Oct-29 18:33N 31°26' E 121°29'53383413.2
2014-Oct-29 18:33N 40°18' E 122°05'8790263692.3
2014-Oct-29 18:31N 41°22' W 071°31'934272173.4
2014-Oct-29 18:23N 31°21' E 121°25'1188.2
2014-Oct-29 18:16N 31°31' E 121°23'5408106970.9
2014-Oct-29 18:13N 48°32' W 123°01'54228313.6
2014-Oct-29 17:33N 32°01' E 120°32'6011408.0
2014-Oct-29 17:33N 31°26' E 121°29'659395537.8
2014-Oct-29 17:33N 23°05' E 113°26'1123449294.0
2014-Oct-29 17:33N 40°18' E 122°05'53054487.8
2014-Oct-29 17:32N 31°29' E 121°27'5407188989.8
2014-Oct-29 17:31N 48°32' W 123°01'5412324741.1
2014-Oct-29 17:30N 31°22' E 121°28'4 4.2
2014-Oct-29 16:33N 31°26' E 121°29'1654.5
2014-Oct-29 16:33N 31°26' E 121°30'660475476.3
2014-Oct-29 16:33N 23°05' E 113°26'65587380.2
2014-Oct-29 16:32N 32°01' E 120°32'5025319.7
2014-Oct-29 16:27N 40°18' E 122°05'5363495.6
2014-Oct-29 16:18N 31°22' E 121°30'541029601.2
2014-Oct-29 16:07N 48°32' W 123°01'54229804.3
2014-Oct-29 15:33N 32°01' E 120°32'6337732.7
2014-Oct-29 15:33N 31°22' E 121°30'658295945.7
2014-Oct-29 15:33N 23°05' E 113°26'659237322.7
2014-Oct-29 15:33N 31°26' E 121°29'533137034.4
2014-Oct-29 15:33N 40°18' E 122°05'494936283.5
2014-Oct-29 15:25N 48°32' W 123°01'62027244.9
2014-Oct-29 14:33N 23°05' E 113°26'659124905.8
2014-Oct-29 14:33N 31°26' E 121°29'533239810.2
2014-Oct-29 14:33N 40°18' E 122°05'502904361.2
2014-Oct-29 14:33N 32°01' E 120°32'5422149010.5
2014-Oct-29 14:31N 48°32' W 123°01'62026517.4
2014-Oct-29 13:34N 23°05' E 113°26'655393205.0
2014-Oct-29 13:33N 32°01' E 120°32'607225.1
2014-Oct-29 13:33N 31°26' E 121°29'5409143169.5
2014-Oct-29 13:31N 48°32' W 123°01'494976460.0
2014-Oct-29 13:27N 40°18' E 122°05'502562.9
2014-Oct-29 12:33N 32°01' E 120°31'6019718.2
2014-Oct-29 12:33N 31°26' E 121°29'65923040.9
2014-Oct-29 12:31N 23°05' E 113°26'6202558217.8
2014-Oct-29 12:31N 48°32' W 123°01'494929991.9
2014-Oct-29 12:21N 40°18' E 122°05'11231420.3
2014-Oct-29 11:33N 23°05' E 113°26'655157282.7
2014-Oct-29 11:33N 32°01' E 120°31'50278634.7
2014-Oct-29 11:33N 40°18' E 122°05'4949147232.8
2014-Oct-29 11:31N 48°32' W 123°01'540983926.9
2014-Oct-29 11:27N 31°26' E 121°29'6067.9
2014-Oct-29 10:34N 32°01' E 120°31'50236172.0
2014-Oct-29 10:33N 40°18' E 122°05'11231347875.3
2014-Oct-29 10:33N 23°05' E 113°26'6202189226.4
2014-Oct-29 10:31N 48°32' W 123°01'540932183.6
2014-Oct-29 10:21N 31°26' E 121°29'6076.1
2014-Oct-29 09:33N 32°01' E 120°31'50278633.8
2014-Oct-29 09:33N 40°18' E 122°05'533213164.6
2014-Oct-29 09:33N 31°26' E 121°29'659237321.0
2014-Oct-29 09:32N 23°05' E 113°26'620279461.6
2014-Oct-29 09:28N 48°32' W 123°01'54225982.3
2014-Oct-29 08:33N 32°01' E 120°31'50242060.4
2014-Oct-29 08:33N 40°18' E 122°05'1123252726.6
2014-Oct-29 08:32N 23°05' E 113°26'6202225542.6
2014-Oct-29 08:31N 48°32' W 123°01'5409118726.0
2014-Oct-29 08:28N 31°26' E 121°29'659715.1
2014-Oct-29 07:33N 23°05' E 113°26'11234043548.3
2014-Oct-29 07:33N 40°18' E 122°05'502120576.1
2014-Oct-29 07:32N 32°01' E 120°31'6036160.5
2014-Oct-29 07:32N 31°26' E 121°29'5409207139.0
2014-Oct-29 07:31N 48°32' W 123°01'54225679.5
2014-Oct-29 06:33N 32°01' E 120°32'655392823.5
2014-Oct-29 06:33N 23°06' E 113°26'65932931.3
2014-Oct-29 06:32N 31°26' E 121°29'5409231798.4
2014-Oct-29 06:31N 48°32' W 123°01'494970976.8
2014-Oct-29 06:27N 40°18' E 122°05'502567.7
2014-Oct-29 05:33N 32°01' E 120°32'655294617.6
2014-Oct-29 05:33N 23°06' E 113°26'112387848.7
2014-Oct-29 05:33N 40°18' E 122°05'5336310.8
2014-Oct-29 05:27N 31°26' E 121°29'540937158.5
2014-Oct-29 05:19N 48°32' W 123°01'54227181.9
2014-Oct-29 04:33N 32°01' E 120°32'65553566.8
2014-Oct-29 04:33N 23°06' E 113°26'1123449002.3
2014-Oct-29 04:33N 40°18' E 122°05'5336352.6
2014-Oct-29 04:28N 31°26' E 121°29'5409116593.2
2014-Oct-29 04:25N 48°32' W 123°01'62027202.0
2014-Oct-29 03:33N 23°06' E 113°26'655785646.9
2014-Oct-29 03:33N 32°01' E 120°32'50253197.1
2014-Oct-29 03:32N 40°18' E 122°05'4949172962.9
2014-Oct-29 03:31N 48°32' W 123°01'540988909.0
2014-Oct-29 03:27N 31°26' E 121°29'6067.0
2014-Oct-29 02:33N 32°01' E 120°32'655294633.4
2014-Oct-29 02:33N 23°06' E 113°26'6202161786.1
2014-Oct-29 02:31N 48°32' W 123°01'540984290.3
2014-Oct-29 02:27N 31°26' E 121°29'53368518.0
2014-Oct-29 02:26N 40°18' E 122°05'0 0.0
2014-Oct-29 01:32N 40°18' E 122°05'1127169066.6
2014-Oct-29 01:32N 23°02' E 113°23'66361243.4
2014-Oct-29 01:31N 31°26' E 121°29'609025.7
2014-Oct-29 01:31N 32°01' E 120°32'54221220022.4
2014-Oct-29 01:31N 48°32' W 123°01'54225681.1
2014-Oct-29 00:33N 32°01' E 120°32'50226995.5
2014-Oct-29 00:32N 40°18' E 122°05'53332516.4
2014-Oct-29 00:31N 31°26' E 121°29'540949045.8
2014-Oct-29 00:25N 48°32' W 123°01'5847725879.7
2014-Oct-29 00:24N 24°53' E 119°03'3311034.6
2014-Oct-29 00:05N 23°03' E 113°21'326615.7
2014-Oct-28 23:33N 24°49' E 118°58'326106849.7
2014-Oct-28 23:33N 23°03' E 113°21'660169688.4
2014-Oct-28 23:33N 32°01' E 120°31'50266986.7
2014-Oct-28 23:32N 40°18' E 122°05'4949185574.7
2014-Oct-28 23:31N 48°32' W 123°01'5409512422.3
2014-Oct-28 23:30N 31°25' E 121°29'533553.0
2014-Oct-28 22:32N 40°18' E 122°05'53314436.6
2014-Oct-28 22:30N 31°25' E 121°29'5409142132.9
2014-Oct-28 22:28N 48°32' W 123°01'5862586185.8
2014-Oct-28 22:27N 24°44' E 118°54'4383573.4
2014-Oct-28 22:20N 31°58' E 120°06'64434108.5
2014-Oct-28 22:19N 23°03' E 113°21'0 0.0
2014-Oct-28 21:33N 23°03' E 113°21'66035995.0
2014-Oct-28 21:32N 32°01' E 120°31'5422221822.8
2014-Oct-28 21:31N 48°32' W 123°01'5409397388.7
2014-Oct-28 21:30N 31°25' E 121°29'725866.8
2014-Oct-28 21:29N 31°57' E 120°13'5093401.1
2014-Oct-28 21:20N 40°18' E 122°05'502644.1
2014-Oct-28 20:33N 32°01' E 120°31'101868.6
2014-Oct-28 20:33N 31°58' E 120°20'65183751.7
2014-Oct-28 20:33N 23°03' E 113°21'1127169055.3
2014-Oct-28 20:32N 40°18' E 122°05'53313427.0
2014-Oct-28 20:30N 31°25' E 121°29'5409153323.2
2014-Oct-28 20:28N 48°32' W 123°01'54225978.7
2014-Oct-28 19:33N 32°01' E 120°32'102475.0
2014-Oct-28 19:33N 31°58' E 120°20'50733187.4
2014-Oct-28 19:32N 40°18' E 122°05'4949209590.2
2014-Oct-28 19:31N 48°32' W 123°01'5409347715.2
2014-Oct-28 19:30N 31°25' E 121°29'66414224.1
2014-Oct-28 19:27N 23°03' E 113°21'660736.2
2014-Oct-28 18:33N 32°01' E 120°32'102855.7
2014-Oct-28 18:33N 31°58' E 120°20'50736505.7
2014-Oct-28 18:32N 40°18' E 122°05'4949214640.6
2014-Oct-28 18:31N 48°32' W 123°01'5409319213.9
2014-Oct-28 18:30N 31°25' E 121°29'6164.1
2014-Oct-28 17:33N 32°01' E 120°32'103713.1
2014-Oct-28 17:33N 31°58' E 120°20'50742448.5
2014-Oct-28 17:32N 40°18' E 122°05'4949209590.2
2014-Oct-28 17:31N 48°32' W 123°01'5412187323.8
2014-Oct-28 17:29N 31°17' E 121°34'9171.5
2014-Oct-28 17:26N 31°25' E 121°29'66416946.9
2014-Oct-28 17:24N 23°03' E 113°21'662784.7
2014-Oct-28 16:33N 31°21' E 121°31'64115651.7
2014-Oct-28 16:33N 32°01' E 120°32'103376.2
2014-Oct-28 16:33N 31°58' E 120°20'50742449.0
2014-Oct-28 16:32N 40°18' E 122°05'4949228399.8
2014-Oct-28 16:31N 48°32' W 123°01'5409278172.5
2014-Oct-28 16:30N 31°25' E 121°29'2 2.6
2014-Oct-28 15:34N 31°24' E 121°31'6332396.8
2014-Oct-28 15:33N 32°01' E 120°32'101003.4
2014-Oct-28 15:33N 31°58' E 120°20'50748033.8
2014-Oct-28 15:32N 40°18' E 122°05'4949237535.8
2014-Oct-28 15:31N 48°32' W 123°01'5409246482.0
2014-Oct-28 15:30N 31°25' E 121°29'6164.5
2014-Oct-28 14:33N 32°01' E 120°32'5818912.8
2014-Oct-28 14:33N 31°28' E 121°27'53132395.1
2014-Oct-28 14:32N 40°18' E 122°05'494970415.7
2014-Oct-28 14:28N 48°32' W 123°01'5409154540.4
2014-Oct-28 14:26N 31°25' E 121°29'0 0.0
2014-Oct-28 13:30N 31°25' E 121°29'5409194720.8
2014-Oct-28 13:28N 48°32' W 123°01'4949161956.1
2014-Oct-28 13:26N 40°18' E 122°05'0 0.0
2014-Oct-28 12:32N 40°18' E 122°05'53311497.5
2014-Oct-28 12:29N 31°25' E 121°29'540974038.3
2014-Oct-28 12:25N 48°32' W 123°01'54096190.0
2014-Oct-28 11:32N 31°40' E 121°12'405810.7
2014-Oct-28 11:32N 32°01' E 120°31'502452187.2
2014-Oct-28 11:32N 40°18' E 122°05'4949265898.1
2014-Oct-28 11:31N 48°32' W 123°01'5409190902.4
2014-Oct-28 11:29N 31°25' E 121°29'6164.9
2014-Oct-28 10:33N 32°01' E 120°31'50226597.4
2014-Oct-28 10:32N 40°18' E 122°05'4949274079.7
2014-Oct-28 10:31N 48°32' W 123°01'540941518.2
2014-Oct-28 10:23N 31°25' E 121°29'6173.1
2014-Oct-28 09:33N 32°01' E 120°31'331628.7
2014-Oct-28 09:32N 31°47' E 121°06'5409266720.8
2014-Oct-28 09:31N 48°32' W 123°01'494959383.9
2014-Oct-28 09:26N 40°18' E 122°05'53341740.4
2014-Oct-28 09:25N 31°25' E 121°29'664108620.2
2014-Oct-28 09:25N 23°03' E 113°21'660762.9
2014-Oct-28 08:33N 32°01' E 120°31'50231729.8
2014-Oct-28 08:32N 40°18' E 122°05'494929642.6
2014-Oct-28 08:22N 48°32' W 123°01'540936670.5
2014-Oct-28 08:13N 31°25' E 121°29'6191.7
2014-Oct-28 07:33N 32°01' E 120°31'50220788.5
2014-Oct-28 07:32N 40°18' E 122°05'5332112.3
2014-Oct-28 07:17N 31°25' E 121°29'540984661.0
2014-Oct-28 07:13N 48°32' W 123°01'54228198.4
2014-Oct-28 06:33N 32°01' E 120°32'5422140434.2
2014-Oct-28 06:31N 48°32' W 123°01'540866223.1
2014-Oct-28 06:26N 31°24' E 121°31'535160379.8
2014-Oct-28 06:26N 40°18' E 122°05'112710118.0
2014-Oct-28 06:19N 23°03' E 113°21'660864.8
2014-Oct-28 05:33N 32°01' E 120°32'50219659.8
2014-Oct-28 05:32N 40°18' E 122°05'11272028653.1
2014-Oct-28 05:32N 23°03' E 113°21'65247872.5
2014-Oct-28 05:31N 31°58' E 120°20'54339780288.6
2014-Oct-28 05:31N 48°32' W 123°01'54225617.4
2014-Oct-28 04:33N 32°01' E 120°32'66025273.0
2014-Oct-28 04:31N 23°03' E 113°21'65275669.4
2014-Oct-28 04:31N 31°58' E 120°20'5075963.2
2014-Oct-28 04:26N 40°18' E 122°05'4949336135.5
2014-Oct-28 04:25N 48°32' W 123°01'62097233.3
2014-Oct-28 03:33N 23°03' E 113°21'112739391.3
2014-Oct-28 03:32N 40°18' E 122°05'4949371149.7
2014-Oct-28 03:31N 48°32' W 123°01'54349780302.6
2014-Oct-28 03:31N 31°58' E 120°20'1010.4
2014-Oct-28 02:32N 32°01' E 120°32'5422433785.7
2014-Oct-28 02:31N 48°32' W 123°01'54333912117.5
2014-Oct-28 02:31N 31°58' E 120°20'65218917.5
2014-Oct-28 02:29N 23°03' E 113°21'11277472.1
2014-Oct-28 02:20N 40°18' E 122°05'502642.1
2014-Oct-28 01:33N 32°01' E 120°32'10313.2
2014-Oct-28 01:31N 31°58' E 120°20'65237835.0
2014-Oct-28 01:30N 23°03' E 113°21'6209201358.4
2014-Oct-28 01:28N 48°32' W 123°01'54225899.2
2014-Oct-28 00:33N 32°01' E 120°32'66039594.4
2014-Oct-28 00:32N 23°03' E 113°21'6209447015.6
2014-Oct-28 00:31N 48°32' W 123°01'54332173397.5
2014-Oct-28 00:31N 31°58' E 120°20'10 9.9
2014-Oct-27 23:33N 32°01' E 120°30'5423189529.4
2014-Oct-27 23:31N 48°32' W 123°01'54341304043.3
2014-Oct-27 23:31N 31°58' E 120°20'8 8.7
2014-Oct-27 22:32N 32°02' E 120°29'5424314923.9
2014-Oct-27 22:31N 48°32' W 123°01'54341150640.7
2014-Oct-27 22:31N 31°58' E 120°20'9 9.0
2014-Oct-27 21:33N 32°02' E 120°29'9181.2
2014-Oct-27 21:31N 31°58' E 120°20'543457701.8
2014-Oct-27 21:25N 48°32' W 123°01'54246176.9
2014-Oct-27 20:32N 32°02' E 120°29'5424256910.3
2014-Oct-27 20:31N 48°32' W 123°01'5434592746.4
2014-Oct-27 20:30N 31°58' E 120°20'0 0.0
2014-Oct-27 19:33N 31°58' E 120°20'543360559.1
2014-Oct-27 19:28N 48°32' W 123°01'54335958.1
2014-Oct-27 18:33N 31°58' E 120°20'5433145974.6
2014-Oct-27 18:31N 48°32' W 123°01'59001117955.6
2014-Oct-27 18:31N 24°30' E 118°20'4581261.7
2014-Oct-27 18:09N 31°56' E 120°16'4 6.7
2014-Oct-27 17:33N 31°58' E 120°20'46219789.0
2014-Oct-27 17:32N 24°29' E 118°15'5904483080.2
2014-Oct-27 17:31N 48°32' W 123°01'54345620.9
2014-Oct-27 16:33N 31°58' E 120°20'543423342.0
2014-Oct-27 16:19N 48°32' W 123°01'2228109879.6
2014-Oct-27 16:18N 41°23' W 071°31'924912359.8
2014-Oct-27 15:33N 31°58' E 120°20'703434.6
2014-Oct-27 15:32N 31°22' E 121°30'5411486974.3
2014-Oct-27 15:31N 48°32' W 123°01'54335601.5
2014-Oct-27 14:33N 31°58' E 120°20'5433182809.1
2014-Oct-27 14:31N 48°32' W 123°01'54335591.9
2014-Oct-27 13:33N 31°58' E 120°20'694627.8
2014-Oct-27 13:32N 31°24' E 121°31'5409405653.0
2014-Oct-27 13:31N 48°32' W 123°01'54335583.9
2014-Oct-27 12:33N 31°58' E 120°20'63112816.2
2014-Oct-27 12:33N 31°29' E 121°25'5409207139.3
2014-Oct-27 12:31N 48°32' W 123°01'54345568.2
2014-Oct-27 11:33N 31°58' E 120°20'5434222283.3
2014-Oct-27 11:31N 48°32' W 123°01'54345568.2
2014-Oct-27 10:33N 31°58' E 120°20'5434227454.0
2014-Oct-27 10:31N 48°32' W 123°01'54345566.6
2014-Oct-27 09:33N 31°58' E 120°20'5434230129.5
2014-Oct-27 09:31N 48°32' W 123°01'54345563.4
2014-Oct-27 08:33N 31°58' E 120°20'65358734.6
2014-Oct-27 08:32N 23°02' E 113°20'6210508081.4
2014-Oct-27 08:31N 48°32' W 123°01'54345560.2
2014-Oct-27 07:32N 31°58' E 120°20'5434241492.9
2014-Oct-27 07:31N 48°32' W 123°01'6210266138.0
2014-Oct-27 07:30N 23°02' E 113°20'653683.1
2014-Oct-27 06:32N 31°58' E 120°20'5433260807.5
2014-Oct-27 06:31N 48°32' W 123°01'621020623.2
2014-Oct-27 06:13N 23°02' E 113°20'653960.6
2014-Oct-27 05:32N 31°58' E 120°20'372581.0
2014-Oct-27 05:31N 31°46' E 121°02'54121217741.1
2014-Oct-27 05:31N 48°32' W 123°01'49498907585.4
2014-Oct-27 05:31N 40°18' E 122°05'507516.8
2014-Oct-27 04:32N 31°58' E 120°20'5433287655.4
2014-Oct-27 04:31N 48°32' W 123°01'49494453791.6
2014-Oct-27 04:31N 40°18' E 122°05'5081550.0
2014-Oct-27 04:11N 32°00' E 119°58'64310196.5
2014-Oct-27 04:08N 23°03' E 113°21'66414221.6
2014-Oct-27 04:05N 31°51' E 120°53'4484.1
2014-Oct-27 03:33N 31°58' E 120°02'151009.9
2014-Oct-27 03:32N 31°58' E 120°20'5433296372.5
2014-Oct-27 03:31N 48°32' W 123°01'5411721486.9
2014-Oct-27 03:31N 31°22' E 121°29'46824.6
2014-Oct-27 03:27N 31°55' E 120°52'50612915.3
2014-Oct-27 03:25N 40°18' E 122°05'11274917.9
2014-Oct-27 03:11N 23°03' E 113°21'652999.5
2014-Oct-27 02:32N 31°58' E 120°20'109434.7
2014-Oct-27 02:32N 31°57' E 120°08'5444337894.5
2014-Oct-27 02:31N 48°32' W 123°01'49492969194.4
2014-Oct-27 02:31N 40°18' E 122°05'502902734.8
2014-Oct-27 02:31N 31°60' E 120°48'66824046.4
2014-Oct-27 02:29N 23°03' E 113°21'647694.7
2014-Oct-27 01:33N 31°56' E 120°14'510305768.5
2014-Oct-27 01:33N 40°18' E 122°05'11274057306.3
2014-Oct-27 01:33N 23°03' E 113°21'66451993.2
2014-Oct-27 01:33N 31°60' E 120°42'192565.7
2014-Oct-27 01:32N 31°58' E 120°20'543317173.4
2014-Oct-27 01:13N 48°32' W 123°01'54338227.7
2014-Oct-27 00:34N 31°59' E 120°20'506165535.5
2014-Oct-27 00:33N 40°18' E 122°05'503150913.2
2014-Oct-27 00:33N 31°60' E 120°35'13755.9
2014-Oct-27 00:32N 31°58' E 120°20'543313075.2
2014-Oct-27 00:07N 48°32' W 123°01'54259634.4
2014-Oct-26 23:33N 32°03' E 120°26'501901624.5
2014-Oct-26 23:33N 40°18' E 122°05'50723705.1
2014-Oct-26 23:32N 31°58' E 120°20'543447134.3
2014-Oct-26 23:25N 48°32' W 123°01'54196289.2
2014-Oct-26 22:33N 32°03' E 120°33'500299991.0
2014-Oct-26 22:33N 40°18' E 122°05'504164843.8
2014-Oct-26 22:33N 32°01' E 120°24'5253.8
2014-Oct-26 22:32N 31°58' E 120°20'543447363.1
2014-Oct-26 22:25N 48°32' W 123°01'54166285.9
2014-Oct-26 21:34N 32°00' E 120°40'172552.2
2014-Oct-26 21:33N 31°59' E 120°20'506303740.0
2014-Oct-26 21:33N 40°18' E 122°05'50733187.6
2014-Oct-26 21:32N 31°58' E 120°20'543425338.0
2014-Oct-26 21:19N 48°32' W 123°01'49496480.6
2014-Oct-26 20:33N 40°18' E 122°05'508107627.0
2014-Oct-26 20:33N 31°57' E 120°17'2135.3
2014-Oct-26 20:32N 31°58' E 120°20'261859.6
2014-Oct-26 20:31N 31°59' E 120°50'541054400.9
2014-Oct-26 20:25N 48°32' W 123°01'49495730.2
2014-Oct-26 19:33N 40°18' E 122°05'51083516.9
2014-Oct-26 19:33N 31°56' E 120°12'7417.7
2014-Oct-26 19:32N 31°58' E 120°20'5434425231.5
2014-Oct-26 19:31N 48°32' W 123°01'541531903.5
2014-Oct-26 19:21N 31°49' E 120°55'7 8.9
2014-Oct-26 18:34N 31°46' E 121°02'514185014.6
2014-Oct-26 18:33N 40°18' E 122°05'5076861.2
2014-Oct-26 18:29N 31°58' E 120°20'543315046.5
2014-Oct-26 18:07N 48°32' W 123°01'49498606.4
2014-Oct-26 17:33N 40°18' E 122°05'519155842.3
2014-Oct-26 17:33N 31°40' E 121°12'540916830.9
2014-Oct-26 17:13N 48°32' W 123°01'5433134899.5
2014-Oct-26 17:11N 31°58' E 120°20'507811.1
2014-Oct-26 16:33N 40°18' E 122°05'4949146026.1
2014-Oct-26 16:31N 48°32' W 123°01'540925028.4
2014-Oct-26 16:18N 31°33' E 121°21'526697.4
2014-Oct-26 15:33N 40°18' E 122°05'50721727.5
2014-Oct-26 15:32N 31°58' E 120°20'5433850455.1
2014-Oct-26 15:31N 48°32' W 123°01'540762999.1
2014-Oct-26 15:26N 31°28' E 121°27'93355.7
2014-Oct-26 15:10N 32°14' E 119°52'495800.7
2014-Oct-26 14:33N 40°18' E 122°05'5341920668.9
2014-Oct-26 14:33N 31°25' E 121°32'5407158244.2
2014-Oct-26 14:31N 48°32' W 123°01'543337472.2
2014-Oct-26 14:23N 31°58' E 120°20'507617.8
2014-Oct-26 13:33N 40°18' E 122°05'50716899.2
2014-Oct-26 13:32N 31°58' E 120°20'543398790.2
2014-Oct-26 13:28N 48°32' W 123°01'49495410.0
2014-Oct-26 12:33N 40°18' E 122°05'50716592.0
2014-Oct-26 12:32N 31°58' E 120°20'543452022.9
2014-Oct-26 12:25N 48°32' W 123°01'49495677.2
2014-Oct-26 11:33N 40°18' E 122°05'4949179951.2
2014-Oct-26 11:31N 48°32' W 123°01'5434113724.5
2014-Oct-26 11:28N 31°58' E 120°20'507552.4
2014-Oct-26 10:33N 40°18' E 122°05'4949141390.3
2014-Oct-26 10:31N 48°32' W 123°01'5434111141.5
2014-Oct-26 10:28N 31°58' E 120°20'507553.6
2014-Oct-26 09:33N 40°18' E 122°05'4949141390.2
2014-Oct-26 09:31N 48°32' W 123°01'54349780427.7
2014-Oct-26 09:31N 31°58' E 120°20'507524.8
2014-Oct-26 08:33N 40°18' E 122°05'4949149707.3
2014-Oct-26 08:31N 48°32' W 123°01'54343912179.8
2014-Oct-26 08:31N 31°58' E 120°20'507525.1
2014-Oct-26 07:33N 40°18' E 122°05'4949150976.0
2014-Oct-26 07:31N 48°32' W 123°01'54342794415.6
2014-Oct-26 07:31N 31°58' E 120°20'774725.8
2014-Oct-26 07:30N 31°21' E 121°40'537563.2
2014-Oct-26 06:33N 40°18' E 122°05'51343975.5
2014-Oct-26 06:32N 31°47' E 121°06'540881125.7
2014-Oct-26 06:28N 48°32' W 123°01'5433101877.2
2014-Oct-26 06:25N 31°58' E 120°20'4754.3
2014-Oct-26 05:33N 31°41' E 121°11'519266683.0
2014-Oct-26 05:33N 40°18' E 122°05'50713722.5
2014-Oct-26 05:31N 31°58' E 120°20'543318383.9
2014-Oct-26 05:13N 48°32' W 123°01'49497416.8
2014-Oct-26 04:33N 40°18' E 122°05'5075812.5
2014-Oct-26 04:28N 31°58' E 120°20'56802.8
2014-Oct-26 04:24N 31°34' E 121°19'540830613.4
2014-Oct-26 04:13N 48°32' W 123°01'49497367.7
2014-Oct-26 03:33N 40°18' E 122°05'50715466.7
2014-Oct-26 03:31N 31°58' E 120°20'543356861.7
2014-Oct-26 03:25N 48°32' W 123°01'540729096.1
2014-Oct-26 03:14N 31°30' E 121°26'14170.5
2014-Oct-26 03:09N 31°21' E 121°39'537894.4
2014-Oct-26 02:33N 40°18' E 122°05'531478327.1
2014-Oct-26 02:33N 31°27' E 121°30'7872.0
2014-Oct-26 02:33N 31°23' E 121°35'732389.3
2014-Oct-26 02:31N 31°58' E 120°20'543358042.8
2014-Oct-26 02:25N 48°32' W 123°01'49495706.3
2014-Oct-26 01:33N 40°18' E 122°05'53696392.2
2014-Oct-26 01:33N 31°23' E 121°34'3154.9
2014-Oct-26 01:32N 31°25' E 121°32'5407973207.8
2014-Oct-26 01:31N 48°32' W 123°01'5434782424.1
2014-Oct-26 01:31N 31°58' E 120°20'6529308.7
2014-Oct-26 01:27N 23°03' E 113°21'11271266.4
2014-Oct-26 00:33N 40°18' E 122°05'536101465.4
2014-Oct-26 00:33N 31°23' E 121°34'72534.7
2014-Oct-26 00:25N 31°58' E 120°20'65275736.9
2014-Oct-26 00:24N 23°03' E 113°19'11271324.5
2014-Oct-25 23:33N 40°18' E 122°05'53626052.2
2014-Oct-25 23:32N 31°23' E 121°34'5407432548.9
2014-Oct-25 23:31N 48°32' W 123°01'5433558870.0
2014-Oct-25 23:31N 31°58' E 120°20'65219249.3
2014-Oct-25 23:29N 23°03' E 113°19'11271221.4
2014-Oct-25 22:33N 40°18' E 122°05'536175258.5
2014-Oct-25 22:33N 31°23' E 121°34'25387.0
2014-Oct-25 22:29N 31°39' E 121°12'481749.8
2014-Oct-25 22:28N 31°58' E 120°20'65297743.3
2014-Oct-25 22:27N 23°03' E 113°21'620926864.2
2014-Oct-25 22:13N 48°32' W 123°01'49497401.4
2014-Oct-25 21:33N 40°18' E 122°05'536642614.4
2014-Oct-25 21:33N 31°23' E 121°34'5407176951.7
2014-Oct-25 21:31N 48°32' W 123°01'5434391217.5
2014-Oct-25 21:31N 31°58' E 120°20'42429.7
2014-Oct-25 21:25N 31°44' E 121°06'4248.9
2014-Oct-25 20:34N 31°58' E 120°20'72260149.8
2014-Oct-25 20:33N 31°23' E 121°34'536192784.3
2014-Oct-25 20:33N 40°18' E 122°05'494937744.0
2014-Oct-25 20:25N 48°32' W 123°01'54346271.5
2014-Oct-25 19:33N 31°58' E 120°20'50770198.8
2014-Oct-25 19:33N 40°18' E 122°05'4949185574.7
2014-Oct-25 19:31N 48°32' W 123°01'540764239.9
2014-Oct-25 19:26N 31°23' E 121°34'7281.8
2014-Oct-25 18:33N 31°58' E 120°20'50779352.6
2014-Oct-25 18:33N 40°18' E 122°05'4949187528.1
2014-Oct-25 18:31N 48°32' W 123°01'5407221189.6
2014-Oct-25 18:30N 31°23' E 121°34'54075738.5
2014-Oct-25 17:33N 48°32' W 123°01'54073244186.9
2014-Oct-25 17:33N 31°23' E 121°34'35148.4
2014-Oct-25 17:19N 31°45' E 121°03'39334.1
2014-Oct-25 17:12N 31°58' E 120°20'507779.3
2014-Oct-25 16:33N 40°18' E 122°05'5071825110.5
2014-Oct-25 16:33N 31°58' E 120°20'0 0.1
2014-Oct-25 15:33N 31°58' E 120°20'50748029.4
2014-Oct-25 15:33N 40°18' E 122°05'5428089.2
2014-Oct-25 15:29N 31°17' E 121°34'5 5.9
2014-Oct-25 14:33N 31°21' E 121°30'537276206.4
2014-Oct-25 14:33N 40°18' E 122°05'0 0.0
2014-Oct-25 13:33N 40°18' E 122°05'534128052.3
2014-Oct-25 13:33N 31°25' E 121°31'534536.4
2014-Oct-25 12:33N 40°18' E 122°05'53014336.1
2014-Oct-25 12:31N 31°29' E 121°25'67148.1
2014-Oct-25 12:04N 31°57' E 120°13'509989.8
2014-Oct-25 11:33N 40°18' E 122°05'50812701.3
2014-Oct-25 11:31N 31°57' E 120°17'58403.4
2014-Oct-25 11:22N 31°34' E 121°19'525643.2
2014-Oct-25 10:33N 40°18' E 122°05'50553458.3
2014-Oct-25 10:33N 31°60' E 120°22'613926186.3
2014-Oct-25 10:19N 33°37' W 117°55'6108392682.7
2014-Oct-25 10:18N 31°39' E 121°14'521703.5
2014-Oct-25 09:33N 40°18' E 122°05'501257783.5
2014-Oct-25 09:33N 32°02' E 120°29'412617.9
2014-Oct-25 09:32N 31°41' E 121°10'6110229128.0
2014-Oct-25 09:31N 33°37' W 117°55'57696027.1
2014-Oct-25 08:33N 40°17' E 122°03'50275247.0
2014-Oct-25 08:33N 32°01' E 120°30'71381.0
2014-Oct-25 08:33N 32°00' E 120°38'29162.8
2014-Oct-25 08:22N 31°45' E 121°06'3542.5
2014-Oct-25 07:33N 32°01' E 120°30'6603068.1
2014-Oct-25 07:20N 23°03' E 113°21'0 0.0
2014-Oct-25 06:31N 23°03' E 113°21'6604455.5
2014-Oct-25 06:22N 32°01' E 120°30'660784.3
2014-Oct-25 05:32N 23°03' E 113°21'66030064.1
2014-Oct-25 05:31N 32°01' E 120°30'30145.9
2014-Oct-25 05:18N 31°47' E 121°02'3037.3
2014-Oct-25 04:30N 32°01' E 120°30'39349.2
2014-Oct-25 04:23N 31°42' E 121°10'4350.9
2014-Oct-25 03:33N 32°01' E 120°25'657328.7
2014-Oct-25 01:33N 23°03' E 113°21'6662635.8
2014-Oct-25 01:18N 31°28' E 121°28'666795.5
2014-Oct-25 00:28N 23°03' E 113°21'66520465.9
2014-Oct-25 00:26N 31°26' E 121°30'4 4.6
2014-Oct-24 23:32N 31°22' E 121°29'610636572.5
2014-Oct-24 23:22N 33°37' W 117°55'9291151.2
2014-Oct-24 22:33N 48°38' W 122°52'54161499886.2
2014-Oct-24 22:33N 31°22' E 121°28'54165439.7
2014-Oct-24 21:33N 48°33' W 122°56'5416270775.1
2014-Oct-24 21:32N 31°22' E 121°28'610614423.8
2014-Oct-24 21:07N 33°37' W 117°55'610610738.6
2014-Oct-24 20:33N 31°22' E 121°28'0 0.0
2014-Oct-24 19:31N 31°22' E 121°28'0 0.0
2014-Oct-24 18:33N 31°22' E 121°28'0 0.0
2014-Oct-24 17:33N 31°22' E 121°28'0 0.0
2014-Oct-24 16:33N 31°22' E 121°28'0 0.0
2014-Oct-24 15:33N 31°22' E 121°28'0 0.0
2014-Oct-24 14:33N 31°22' E 121°28'662124.1
2014-Oct-24 09:13N 23°02' E 113°20'644978.7
2014-Oct-24 08:33N 31°59' E 120°01'6442233.7
2014-Oct-24 08:16N 23°02' E 113°20'6623310.2
2014-Oct-24 08:04N 31°22' E 121°28'75144.1
2014-Oct-24 07:33N 31°57' E 120°10'7654870.7
2014-Oct-24 07:32N 31°22' E 121°29'55217.5
2014-Oct-24 07:17N 32°02' E 120°45'6695988.9
2014-Oct-24 07:11N 23°02' E 113°20'6521054.3
2014-Oct-24 06:33N 31°58' E 120°18'734017.7
2014-Oct-24 06:32N 31°21' E 121°31'6635025.6
2014-Oct-24 06:24N 23°02' E 113°20'663729.8
2014-Oct-24 05:30N 31°21' E 121°31'66311051.7
2014-Oct-24 05:26N 23°02' E 113°20'663738.2
2014-Oct-24 04:32N 31°21' E 121°31'66314467.8
2014-Oct-24 04:30N 23°02' E 113°20'663705.8
2014-Oct-24 03:33N 31°21' E 121°31'662216665.5
2014-Oct-24 03:33N 23°03' E 113°21'662632.0
2014-Oct-24 02:30N 31°21' E 121°31'66227083.2
2014-Oct-24 02:29N 23°03' E 113°21'662640.2
2014-Oct-24 01:27N 31°21' E 121°31'6104221969.7
2014-Oct-24 01:25N 33°37' W 117°55'6829630362.7
2014-Oct-24 01:24N 23°03' E 113°21'662769.1
2014-Oct-24 00:33N 31°21' E 121°31'66227712.7
2014-Oct-24 00:31N 23°03' E 113°21'662329.3
2014-Oct-23 22:31N 31°21' E 121°31'0 0.0
2014-Oct-23 21:33N 31°21' E 121°31'0 0.0
2014-Oct-23 20:29N 31°21' E 121°31'0 0.0
2014-Oct-23 19:33N 31°21' E 121°31'7067.2
2014-Oct-23 18:31N 32°01' E 120°24'702947.9
2014-Oct-23 18:30N 31°21' E 121°31'0 0.0
2014-Oct-23 17:33N 31°21' E 121°31'0 0.0
2014-Oct-23 16:31N 31°21' E 121°31'0 0.0
2014-Oct-23 15:33N 31°21' E 121°31'0 0.0
2014-Oct-23 14:32N 31°21' E 121°31'0 0.0
2014-Oct-23 13:31N 31°21' E 121°31'0 0.0
2014-Oct-23 12:30N 31°21' E 121°31'0 0.0
2014-Oct-23 10:32N 31°21' E 121°31'0 0.0
2014-Oct-23 09:33N 31°21' E 121°31'533.2
2014-Oct-23 09:24N 31°16' E 121°34'5 6.1
2014-Oct-23 08:32N 31°21' E 121°31'66210013.5
2014-Oct-23 08:28N 23°03' E 113°21'65631070.5
2014-Oct-23 08:27N 31°13' E 121°30'656732.9
2014-Oct-23 07:33N 23°03' E 113°21'0 0.0
2014-Oct-23 06:22N 23°03' E 113°21'68293055.8
2014-Oct-23 04:08N 33°37' W 117°55'68298856.0
2014-Oct-23 03:22N 23°03' E 113°21'0 0.0
2014-Oct-23 02:33N 23°03' E 113°21'0 0.0
2014-Oct-23 01:33N 23°03' E 113°21'661561.7
2014-Oct-23 00:22N 31°22' E 121°28'5 1.2
2014-Oct-22 20:05N 31°19' E 121°33'5 0.8
2014-Oct-22 13:24N 31°22' E 121°28'5 5.4
2014-Oct-22 12:27N 31°19' E 121°33'662203.1
2014-Oct-22 09:11N 23°03' E 113°21'66223374.5
2014-Oct-22 09:09N 31°19' E 121°33'2828.3
2014-Oct-22 08:10N 31°40' E 121°12'  

Dump ship's entire track history